Observation data for Lake McClellan 2NW on 06/24/2019      Previous  Date  Next       Current Mesonet Observations  Soil Data  Daily Summary Page  Observations in Plain Language
KMC5 240500Z 03010KT 16/14 A2998 RMK A01 T01640135  RH  083%=      5-min Rain = 0
KMC5 240501Z 03010KT 16/14 A2998 RMK A01 T01640136  RH  083%=      5-min Rain = 0
KMC5 240502Z 03009KT 16/14 A2998 RMK A01 T01640136  RH  084%=      5-min Rain = 0
KMC5 240503Z 03010KT 16/14 A2998 RMK A01 T01640136  RH  084%=      5-min Rain = 0
KMC5 240504Z 03010KT 16/14 A2998 RMK A01 T01630136  RH  084%=      5-min Rain = 0
KMC5 240505Z 03010KT 16/14 A2998 RMK A01 T01630136  RH  084%=      5-min Rain = 0
KMC5 240506Z 03010KT 16/14 A2998 RMK A01 T01640136  RH  084%=      5-min Rain = 0
KMC5 240507Z 03010KT 16/14 A2998 RMK A01 T01630136  RH  084%=      5-min Rain = 0
KMC5 240508Z 03010KT 16/14 A2998 RMK A01 T01630136  RH  084%=      5-min Rain = 0
KMC5 240509Z 03010KT 16/14 A2998 RMK A01 T01630135  RH  084%=      5-min Rain = 0
KMC5 240510Z 03010KT 16/14 A2998 RMK A01 T01630135  RH  084%=      5-min Rain = 0
KMC5 240511Z 03008KT 16/14 A2998 RMK A01 T01630135  RH  084%=      5-min Rain = 0
KMC5 240512Z 03009KT 16/14 A2998 RMK A01 T01630136  RH  084%=      5-min Rain = 0
KMC5 240513Z 03009KT 16/14 A2998 RMK A01 T01620136  RH  084%=      5-min Rain = 0
KMC5 240514Z 03009KT 16/14 A2998 RMK A01 T01620136  RH  084%=      5-min Rain = 0
KMC5 240515Z 03009KT 16/14 A2998 RMK A01 T01620136  RH  084%=      5-min Rain = 0
KMC5 240516Z 03009KT 16/14 A2998 RMK A01 T01620136  RH  085%=      5-min Rain = 0
KMC5 240517Z 02008KT 16/14 A2998 RMK A01 T01610136  RH  085%=      5-min Rain = 0
KMC5 240518Z 03009KT 16/14 A2998 RMK A01 T01610136  RH  085%=      5-min Rain = 0
KMC5 240519Z 02009KT 16/14 A2998 RMK A01 T01610136  RH  085%=      5-min Rain = 0
KMC5 240520Z 02009KT 16/14 A2998 RMK A01 T01600136  RH  085%=      5-min Rain = 0
KMC5 240521Z 02009KT 16/14 A2998 RMK A01 T01600136  RH  085%=      5-min Rain = 0
KMC5 240522Z 02008KT 16/14 A2998 RMK A01 T01600136  RH  085%=      5-min Rain = 0
KMC5 240523Z 02008KT 16/14 A2999 RMK A01 T01600136  RH  086%=      5-min Rain = 0
KMC5 240524Z 02008KT 16/14 A2999 RMK A01 T01590136  RH  086%=      5-min Rain = 0
KMC5 240525Z 02008KT 16/14 A2999 RMK A01 T01590136  RH  086%=      5-min Rain = 0
KMC5 240526Z 01008KT 16/14 A2999 RMK A01 T01590136  RH  086%=      5-min Rain = 0
KMC5 240527Z 01008KT 16/14 A2999 RMK A01 T01590136  RH  086%=      5-min Rain = 0
KMC5 240528Z 01008KT 16/14 A2999 RMK A01 T01590135  RH  086%=      5-min Rain = 0
KMC5 240529Z 01008KT 16/14 A2999 RMK A01 T01590135  RH  086%=      5-min Rain = 0
KMC5 240530Z 01008KT 16/14 A2999 RMK A01 T01590135  RH  086%=      5-min Rain = 0
KMC5 240531Z 01008KT 16/14 A2999 RMK A01 T01590135  RH  086%=      5-min Rain = 0
KMC5 240532Z 01009KT 16/13 A2999 RMK A01 T01590134  RH  085%=      5-min Rain = 0
KMC5 240533Z 01010KT 16/13 A2999 RMK A01 T01590134  RH  085%=      5-min Rain = 0
KMC5 240534Z 01011KT 16/13 A2999 RMK A01 T01600134  RH  085%=      5-min Rain = 0
KMC5 240535Z 01011KT 16/13 A30 RMK A01 T01600134  RH  085%=      5-min Rain = 0
KMC5 240536Z 02010KT 16/13 A30 RMK A01 T01600133  RH  084%=      5-min Rain = 0
KMC5 240537Z 02009KT 16/13 A2999 RMK A01 T01610133  RH  084%=      5-min Rain = 0
KMC5 240538Z 02009KT 16/13 A2999 RMK A01 T01610133  RH  083%=      5-min Rain = 0
KMC5 240539Z 02008KT 16/13 A2999 RMK A01 T01620133  RH  083%=      5-min Rain = 0
KMC5 240540Z 02008KT 16/13 A2999 RMK A01 T01620133  RH  083%=      5-min Rain = 0
KMC5 240541Z 02008KT 16/13 A2999 RMK A01 T01620133  RH  083%=      5-min Rain = 0
KMC5 240542Z 02008KT 16/13 A2999 RMK A01 T01620133  RH  083%=      5-min Rain = 0
KMC5 240543Z 02008KT 16/13 A2999 RMK A01 T01620133  RH  083%=      5-min Rain = 0
KMC5 240544Z 02008KT 16/13 A30 RMK A01 T01620133  RH  083%=      5-min Rain = 0
KMC5 240545Z 02008KT 16/13 A30 RMK A01 T01610134  RH  084%=      5-min Rain = 0
KMC5 240546Z 02008KT 16/13 A30 RMK A01 T01610134  RH  084%=      5-min Rain = 0
KMC5 240547Z 02008KT 16/13 A30 RMK A01 T01600133  RH  084%=      5-min Rain = 0
KMC5 240548Z 02008KT 16/13 A30 RMK A01 T01600133  RH  084%=      5-min Rain = 0
KMC5 240549Z 02008KT 16/13 A30 RMK A01 T01600134  RH  084%=      5-min Rain = 0
KMC5 240550Z 02008KT 16/13 A30 RMK A01 T01600134  RH  084%=      5-min Rain = 0
KMC5 240551Z 02008KT 16/13 A30 RMK A01 T01600133  RH  084%=      5-min Rain = 0
KMC5 240552Z 02008KT 16/13 A30 RMK A01 T01600133  RH  084%=      5-min Rain = 0
KMC5 240553Z 02008KT 16/13 A30 RMK A01 T01600133  RH  084%=      5-min Rain = 0
KMC5 240554Z 02008KT 16/13 A30 RMK A01 T01600133  RH  084%=      5-min Rain = 0
KMC5 240555Z 02008KT 16/13 A30 RMK A01 T01600133  RH  084%=      5-min Rain = 0
KMC5 240556Z 01008KT 16/13 A30 RMK A01 T01600134  RH  084%=      5-min Rain = 0
KMC5 240557Z 02008KT 16/13 A30 RMK A01 T01600134  RH  084%=      5-min Rain = 0
KMC5 240558Z 02008KT 16/13 A30 RMK A01 T01590134  RH  085%=      5-min Rain = 0
KMC5 240559Z 02008KT 16/13 A30 RMK A01 T01590134  RH  085%=      5-min Rain = 0
KMC5 240600Z 02008KT 16/13 A30 RMK A01 T01590134  RH  085%=      5-min Rain = 0
KMC5 240601Z 02008KT 16/13 A30 RMK A01 T01590134  RH  085%=      5-min Rain = 0
KMC5 240602Z 02008KT 16/13 A30 RMK A01 T01590134  RH  085%=      5-min Rain = 0
KMC5 240603Z 02008KT 16/13 A30 RMK A01 T01580134  RH  085%=      5-min Rain = 0
KMC5 240604Z 02007KT 16/13 A30 RMK A01 T01580134  RH  085%=      5-min Rain = 0
KMC5 240605Z 02007KT 16/13 A30 RMK A01 T01580134  RH  085%=      5-min Rain = 0
KMC5 240606Z 02007KT 16/13 A30 RMK A01 T01580133  RH  085%=      5-min Rain = 0
KMC5 240607Z 03006KT 16/13 A30 RMK A01 T01580133  RH  085%=      5-min Rain = 0
KMC5 240608Z 02006KT 16/13 A2999 RMK A01 T01580133  RH  085%=      5-min Rain = 0
KMC5 240609Z 02007KT 16/13 A2999 RMK A01 T01580133  RH  085%=      5-min Rain = 0
KMC5 240610Z 02007KT 16/13 A2999 RMK A01 T01580133  RH  085%=      5-min Rain = 0
KMC5 240611Z 01008KT 16/13 A2999 RMK A01 T01580133  RH  085%=      5-min Rain = 0
KMC5 240612Z 01008KT 16/13 A2999 RMK A01 T01580133  RH  085%=      5-min Rain = 0
KMC5 240613Z 01009KT 16/13 A2999 RMK A01 T01580133  RH  085%=      5-min Rain = 0
KMC5 240614Z 01009KT 16/13 A2999 RMK A01 T01580133  RH  085%=      5-min Rain = 0
KMC5 240615Z 01009KT 16/13 A2999 RMK A01 T01580132  RH  084%=      5-min Rain = 0
KMC5 240616Z 01010KT 16/13 A2999 RMK A01 T01580132  RH  084%=      5-min Rain = 0
KMC5 240617Z 01009KT 16/13 A30 RMK A01 T01590131  RH  084%=      5-min Rain = 0
KMC5 240618Z 02009KT 16/13 A30 RMK A01 T01590131  RH  083%=      5-min Rain = 0
KMC5 240619Z 02008KT 16/13 A30 RMK A01 T01600131  RH  083%=      5-min Rain = 0
KMC5 240620Z 02008KT 16/13 A30 RMK A01 T01600131  RH  083%=      5-min Rain = 0
KMC5 240621Z 03007KT 16/13 A30 RMK A01 T01600132  RH  083%=      5-min Rain = 0
KMC5 240622Z 03007KT 16/13 A30 RMK A01 T01600132  RH  083%=      5-min Rain = 0
KMC5 240623Z 03007KT 16/13 A30 RMK A01 T01590132  RH  084%=      5-min Rain = 0
KMC5 240624Z 03007KT 16/13 A30 RMK A01 T01580131  RH  084%=      5-min Rain = 0
KMC5 240625Z 03007KT 16/13 A30 RMK A01 T01580131  RH  084%=      5-min Rain = 0
KMC5 240626Z 03007KT 16/13 A30 RMK A01 T01580131  RH  084%=      5-min Rain = 0
KMC5 240627Z 02007KT 16/13 A30 RMK A01 T01580131  RH  084%=      5-min Rain = 0
KMC5 240628Z 02007KT 16/13 A30 RMK A01 T01580131  RH  084%=      5-min Rain = 0
KMC5 240629Z 03006KT 16/13 A30 RMK A01 T01580131  RH  084%=      5-min Rain = 0
KMC5 240630Z 03007KT 16/13 A30 RMK A01 T01580131  RH  084%=      5-min Rain = 0
KMC5 240631Z 03007KT 16/13 A30 RMK A01 T01580131  RH  084%=      5-min Rain = 0
KMC5 240632Z 03006KT 16/13 A30 RMK A01 T01570131  RH  085%=      5-min Rain = 0
KMC5 240633Z 03006KT 16/13 A30 RMK A01 T01570131  RH  085%=      5-min Rain = 0
KMC5 240634Z 03007KT 16/13 A30 RMK A01 T01570131  RH  085%=      5-min Rain = 0
KMC5 240635Z 03006KT 16/13 A30 RMK A01 T01570130  RH  084%=      5-min Rain = 0
KMC5 240636Z 03007KT 16/13 A30 RMK A01 T01570130  RH  084%=      5-min Rain = 0
KMC5 240637Z 03007KT 16/13 A30 RMK A01 T01570129  RH  084%=      5-min Rain = 0
KMC5 240638Z 03007KT 16/13 A30 RMK A01 T01570130  RH  084%=      5-min Rain = 0
KMC5 240639Z 03007KT 16/13 A30 RMK A01 T01580130  RH  084%=      5-min Rain = 0
KMC5 240640Z 03007KT 16/13 A30 RMK A01 T01570129  RH  083%=      5-min Rain = 0
KMC5 240641Z 04007KT 16/13 A30 RMK A01 T01570130  RH  083%=      5-min Rain = 0
KMC5 240642Z 04007KT 16/13 A30 RMK A01 T01580130  RH  084%=      5-min Rain = 0
KMC5 240643Z 03007KT 16/13 A30 RMK A01 T01570130  RH  084%=      5-min Rain = 0
KMC5 240644Z 02008KT 16/13 A30 RMK A01 T01570130  RH  084%=      5-min Rain = 0
KMC5 240645Z 02009KT 16/13 A30 RMK A01 T01560131  RH  085%=      5-min Rain = 0
KMC5 240646Z 02008KT 16/13 A30 RMK A01 T01550130  RH  085%=      5-min Rain = 0
KMC5 240647Z 01009KT 16/13 A30 RMK A01 T01550130  RH  085%=      5-min Rain = 0
KMC5 240648Z 01010KT 16/13 A3001 RMK A01 T01550130  RH  085%=      5-min Rain = 0
KMC5 240649Z 01010KT 16/13 A3001 RMK A01 T01560129  RH  084%=      5-min Rain = 0
KMC5 240650Z 01010KT 16/13 A30 RMK A01 T01570128  RH  083%=      5-min Rain = 0
KMC5 240651Z 00008KT 16/13 A30 RMK A01 T01590128  RH  082%=      5-min Rain = 0
KMC5 240652Z 01008KT 16/13 A3001 RMK A01 T01600129  RH  082%=      5-min Rain = 0
KMC5 240653Z 00008KT 16/13 A3001 RMK A01 T01590129  RH  082%=      5-min Rain = 0
KMC5 240654Z 00010KT 16/13 A3001 RMK A01 T01580130  RH  083%=      5-min Rain = 0
KMC5 240655Z 00009KT 16/13 A3001 RMK A01 T01580129  RH  083%=      5-min Rain = 0
KMC5 240656Z 00009KT 16/13 A3001 RMK A01 T01570129  RH  083%=      5-min Rain = 0
KMC5 240657Z 00009KT 16/13 A3001 RMK A01 T01570128  RH  083%=      5-min Rain = 0
KMC5 240658Z 00009KT 16/13 A3001 RMK A01 T01580127  RH  082%=      5-min Rain = 0
KMC5 240659Z 00009KT 16/13 A3001 RMK A01 T01580127  RH  081%=      5-min Rain = 0
KMC5 240700Z 00009KT 16/13 A3001 RMK A01 T01590127  RH  081%=      5-min Rain = 0
KMC5 240701Z 00009KT 16/13 A3001 RMK A01 T01580128  RH  082%=      5-min Rain = 0
KMC5 240702Z 36009KT 16/13 A3001 RMK A01 T01580127  RH  082%=      5-min Rain = 0
KMC5 240703Z 00009KT 16/13 A3001 RMK A01 T01580127  RH  082%=      5-min Rain = 0
KMC5 240704Z 00009KT 16/13 A3001 RMK A01 T01580125  RH  081%=      5-min Rain = 0
KMC5 240705Z 00009KT 16/13 A3001 RMK A01 T01580125  RH  081%=      5-min Rain = 0
KMC5 240706Z 00010KT 16/13 A3001 RMK A01 T01580126  RH  081%=      5-min Rain = 0
KMC5 240707Z 00010KT 16/13 A3001 RMK A01 T01570125  RH  081%=      5-min Rain = 0
KMC5 240708Z 00010KT 16/13 A3001 RMK A01 T01570125  RH  081%=      5-min Rain = 0
KMC5 240709Z 00010KT 16/13 A3001 RMK A01 T01570125  RH  081%=      5-min Rain = 0
KMC5 240710Z 00010KT 16/13 A3001 RMK A01 T01570125  RH  081%=      5-min Rain = 0
KMC5 240711Z 36010KT 16/12 A3001 RMK A01 T01570124  RH  081%=      5-min Rain = 0
KMC5 240712Z 00010KT 16/12 A3001 RMK A01 T01570124  RH  081%=      5-min Rain = 0
KMC5 240713Z 00009KT 16/12 A3001 RMK A01 T01570123  RH  080%=      5-min Rain = 0
KMC5 240714Z 00009KT 16/12 A3001 RMK A01 T01570124  RH  080%=      5-min Rain = 0
KMC5 240715Z 00010KT 16/12 A3001 RMK A01 T01580124  RH  080%=      5-min Rain = 0
KMC5 240716Z 36009KT 16/12 A3001 RMK A01 T01580124  RH  080%=      5-min Rain = 0
KMC5 240717Z 00009KT 16/12 A3001 RMK A01 T01580123  RH  080%=      5-min Rain = 0
KMC5 240718Z 36009KT 16/12 A3001 RMK A01 T01580123  RH  079%=      5-min Rain = 0
KMC5 240719Z 00009KT 16/12 A3001 RMK A01 T01580122  RH  079%=      5-min Rain = 0
KMC5 240720Z 36009KT 16/12 A3001 RMK A01 T01580122  RH  079%=      5-min Rain = 0
KMC5 240721Z 00010KT 16/12 A3001 RMK A01 T01580122  RH  079%=      5-min Rain = 0
KMC5 240722Z 00009KT 16/12 A3001 RMK A01 T01580122  RH  079%=      5-min Rain = 0
KMC5 240723Z 00010KT 16/12 A3001 RMK A01 T01580123  RH  079%=      5-min Rain = 0
KMC5 240724Z 36010KT 16/12 A3001 RMK A01 T01580123  RH  080%=      5-min Rain = 0
KMC5 240725Z 00010KT 16/12 A3001 RMK A01 T01580124  RH  080%=      5-min Rain = 0
KMC5 240726Z 36010KT 16/12 A3001 RMK A01 T01570124  RH  081%=      5-min Rain = 0
KMC5 240727Z 36010KT 16/13 A3001 RMK A01 T01570125  RH  081%=      5-min Rain = 0
KMC5 240728Z 36010KT 16/13 A3001 RMK A01 T01570126  RH  082%=      5-min Rain = 0
KMC5 240729Z 36010KT 16/13 A3001 RMK A01 T01560126  RH  082%=      5-min Rain = 0
KMC5 240730Z 36010KT 16/13 A3001 RMK A01 T01560126  RH  082%=      5-min Rain = 0
KMC5 240731Z 36010KT 16/13 A3001 RMK A01 T01560125  RH  082%=      5-min Rain = 0
KMC5 240732Z 36010KT 16/13 A3001 RMK A01 T01560125  RH  081%=      5-min Rain = 0
KMC5 240733Z 36011KT 16/12 A3001 RMK A01 T01570124  RH  081%=      5-min Rain = 0
KMC5 240734Z 36011KT 16/12 A3001 RMK A01 T01580123  RH  080%=      5-min Rain = 0
KMC5 240735Z 36010KT 16/12 A3001 RMK A01 T01590124  RH  080%=      5-min Rain = 0
KMC5 240736Z 36011KT 16/12 A3001 RMK A01 T01600124  RH  079%=      5-min Rain = 0
KMC5 240737Z 36011KT 16/12 A3001 RMK A01 T01600124  RH  079%=      5-min Rain = 0
KMC5 240738Z 00011KT 16/12 A3001 RMK A01 T01600122  RH  078%=      5-min Rain = 0
KMC5 240739Z 36011KT 16/12 A3001 RMK A01 T01610121  RH  077%=      5-min Rain = 0
KMC5 240740Z 36011KT 16/12 A3001 RMK A01 T01620121  RH  076%=      5-min Rain = 0
KMC5 240741Z 00011KT 16/12 A3001 RMK A01 T01630121  RH  076%=      5-min Rain = 0
KMC5 240742Z 36010KT 16/12 A3001 RMK A01 T01630121  RH  076%=      5-min Rain = 0
KMC5 240743Z 36010KT 16/12 A3001 RMK A01 T01630121  RH  076%=      5-min Rain = 0
KMC5 240744Z 36011KT 16/12 A3001 RMK A01 T01630121  RH  076%=      5-min Rain = 0
KMC5 240745Z 36011KT 16/12 A3001 RMK A01 T01630120  RH  075%=      5-min Rain = 0
KMC5 240746Z 36010KT 16/12 A3001 RMK A01 T01640120  RH  075%=      5-min Rain = 0
KMC5 240747Z 36010KT 16/12 A3001 RMK A01 T01640120  RH  075%=      5-min Rain = 0
KMC5 240748Z 36011KT 17/12 A3001 RMK A01 T01650120  RH  075%=      5-min Rain = 0
KMC5 240749Z 00011KT 17/12 A3001 RMK A01 T01650121  RH  075%=      5-min Rain = 0
KMC5 240750Z 36011KT 17/12 A3001 RMK A01 T01650120  RH  075%=      5-min Rain = 0
KMC5 240751Z 36011KT 17/12 A3001 RMK A01 T01660119  RH  074%=      5-min Rain = 0
KMC5 240752Z 00011KT 17/12 A3001 RMK A01 T01670118  RH  073%=      5-min Rain = 0
KMC5 240753Z 00011KT 17/12 A3001 RMK A01 T01670119  RH  073%=      5-min Rain = 0
KMC5 240754Z 00011KT 17/12 A3001 RMK A01 T01670119  RH  073%=      5-min Rain = 0
KMC5 240755Z 00011KT 17/12 A3001 RMK A01 T01670119  RH  073%=      5-min Rain = 0
KMC5 240756Z 00011KT 17/12 A3001 RMK A01 T01670118  RH  073%=      5-min Rain = 0
KMC5 240757Z 00011KT 17/12 A3001 RMK A01 T01670118  RH  073%=      5-min Rain = 0
KMC5 240758Z 00011KT 17/12 A3001 RMK A01 T01670118  RH  073%=      5-min Rain = 0
KMC5 240759Z 00011KT 17/12 A3001 RMK A01 T01670118  RH  073%=      5-min Rain = 0
KMC5 240800Z 00011KT 17/12 A3001 RMK A01 T01670118  RH  073%=      5-min Rain = 0
KMC5 240801Z 00011KT 17/12 A3001 RMK A01 T01670118  RH  073%=      5-min Rain = 0
KMC5 240802Z 00012KT 17/12 A3001 RMK A01 T01660118  RH  073%=      5-min Rain = 0
KMC5 240803Z 00011KT 17/12 A3001 RMK A01 T01670117  RH  073%=      5-min Rain = 0
KMC5 240804Z 00011KT 17/12 A3001 RMK A01 T01670117  RH  072%=      5-min Rain = 0
KMC5 240805Z 01011KT 17/12 A3001 RMK A01 T01660116  RH  072%=      5-min Rain = 0
KMC5 240806Z 00010KT 17/12 A3001 RMK A01 T01670116  RH  072%=      5-min Rain = 0
KMC5 240807Z 00010KT 17/12 A3001 RMK A01 T01670116  RH  072%=      5-min Rain = 0
KMC5 240808Z 00010KT 17/12 A3001 RMK A01 T01670116  RH  072%=      5-min Rain = 0
KMC5 240809Z 00010KT 17/12 A3001 RMK A01 T01670115  RH  072%=      5-min Rain = 0
KMC5 240810Z 00010KT 17/12 A3001 RMK A01 T01660115  RH  072%=      5-min Rain = 0
KMC5 240811Z 00010KT 17/12 A3001 RMK A01 T01660116  RH  072%=      5-min Rain = 0
KMC5 240812Z 00010KT 17/12 A3001 RMK A01 T01660116  RH  072%=      5-min Rain = 0
KMC5 240813Z 00010KT 17/12 A30 RMK A01 T01650115  RH  072%=      5-min Rain = 0
KMC5 240814Z 00010KT 17/11 A30 RMK A01 T01650114  RH  072%=      5-min Rain = 0
KMC5 240815Z 00010KT 17/12 A30 RMK A01 T01650115  RH  072%=      5-min Rain = 0
KMC5 240816Z 00011KT 17/12 A30 RMK A01 T01650115  RH  073%=      5-min Rain = 0
KMC5 240817Z 00011KT 16/12 A30 RMK A01 T01640115  RH  073%=      5-min Rain = 0
KMC5 240818Z 00011KT 16/11 A30 RMK A01 T01640113  RH  072%=      5-min Rain = 0
KMC5 240819Z 00011KT 16/11 A30 RMK A01 T01640113  RH  072%=      5-min Rain = 0
KMC5 240820Z 00011KT 16/11 A30 RMK A01 T01640114  RH  072%=      5-min Rain = 0
KMC5 240821Z 00011KT 16/11 A30 RMK A01 T01630114  RH  073%=      5-min Rain = 0
KMC5 240822Z 00011KT 16/11 A30 RMK A01 T01620114  RH  073%=      5-min Rain = 0
KMC5 240823Z 00011KT 16/11 A30 RMK A01 T01610114  RH  073%=      5-min Rain = 0
KMC5 240824Z 00011KT 16/11 A30 RMK A01 T01610114  RH  074%=      5-min Rain = 0
KMC5 240825Z 00010KT 16/11 A30 RMK A01 T01600113  RH  073%=      5-min Rain = 0
KMC5 240826Z 00010KT 16/11 A30 RMK A01 T01600112  RH  073%=      5-min Rain = 0
KMC5 240827Z 00010KT 16/11 A30 RMK A01 T01600112  RH  073%=      5-min Rain = 0
KMC5 240828Z 00010KT 16/11 A30 RMK A01 T01600112  RH  073%=      5-min Rain = 0
KMC5 240829Z 00010KT 16/11 A30 RMK A01 T01600112  RH  073%=      5-min Rain = 0
KMC5 240830Z 00009KT 16/11 A30 RMK A01 T01600112  RH  073%=      5-min Rain = 0
KMC5 240831Z 00010KT 16/11 A30 RMK A01 T01600111  RH  072%=      5-min Rain = 0
KMC5 240832Z 00010KT 16/11 A30 RMK A01 T01600111  RH  072%=      5-min Rain = 0
KMC5 240833Z 00010KT 16/11 A30 RMK A01 T01610111  RH  072%=      5-min Rain = 0
KMC5 240834Z 00010KT 16/11 A30 RMK A01 T01610112  RH  073%=      5-min Rain = 0
KMC5 240835Z 00010KT 16/11 A30 RMK A01 T01600112  RH  073%=      5-min Rain = 0
KMC5 240836Z 00010KT 16/11 A30 RMK A01 T01590112  RH  074%=      5-min Rain = 0
KMC5 240837Z 00010KT 16/11 A30 RMK A01 T01590112  RH  074%=      5-min Rain = 0
KMC5 240838Z 00010KT 16/11 A30 RMK A01 T01590112  RH  074%=      5-min Rain = 0
KMC5 240839Z 00010KT 16/11 A30 RMK A01 T01590113  RH  074%=      5-min Rain = 0
KMC5 240840Z 36010KT 16/11 A30 RMK A01 T01590112  RH  074%=      5-min Rain = 0
KMC5 240841Z 36010KT 16/11 A30 RMK A01 T01580112  RH  074%=      5-min Rain = 0
KMC5 240842Z 36010KT 16/11 A30 RMK A01 T01590112  RH  074%=      5-min Rain = 0
KMC5 240843Z 36010KT 16/11 A30 RMK A01 T01590112  RH  074%=      5-min Rain = 0
KMC5 240844Z 36010KT 16/11 A30 RMK A01 T01580111  RH  073%=      5-min Rain = 0
KMC5 240845Z 00010KT 16/11 A30 RMK A01 T01590110  RH  073%=      5-min Rain = 0
KMC5 240846Z 00010KT 16/11 A30 RMK A01 T01600110  RH  072%=      5-min Rain = 0
KMC5 240847Z 00010KT 16/11 A30 RMK A01 T01610110  RH  072%=      5-min Rain = 0
KMC5 240848Z 00010KT 16/11 A30 RMK A01 T01610111  RH  072%=      5-min Rain = 0
KMC5 240849Z 00010KT 16/11 A30 RMK A01 T01610111  RH  072%=      5-min Rain = 0
KMC5 240850Z 00010KT 16/11 A30 RMK A01 T01610110  RH  072%=      5-min Rain = 0
KMC5 240851Z 00011KT 16/11 A30 RMK A01 T01610109  RH  072%=      5-min Rain = 0
KMC5 240852Z 00011KT 16/11 A30 RMK A01 T01610110  RH  071%=      5-min Rain = 0
KMC5 240853Z 00010KT 16/11 A30 RMK A01 T01610110  RH  072%=      5-min Rain = 0
KMC5 240854Z 00011KT 16/11 A30 RMK A01 T01610110  RH  072%=      5-min Rain = 0
KMC5 240855Z 00011KT 16/11 A30 RMK A01 T01600111  RH  073%=      5-min Rain = 0
KMC5 240856Z 00011KT 16/11 A30 RMK A01 T01590111  RH  073%=      5-min Rain = 0
KMC5 240857Z 00011KT 16/11 A30 RMK A01 T01590109  RH  072%=      5-min Rain = 0
KMC5 240858Z 00011KT 16/11 A30 RMK A01 T01590109  RH  072%=      5-min Rain = 0
KMC5 240859Z 00011KT 16/11 A30 RMK A01 T01600108  RH  071%=      5-min Rain = 0
KMC5 240900Z 36010KT 16/11 A30 RMK A01 T01600109  RH  072%=      5-min Rain = 0
KMC5 240901Z 00010KT 16/11 A30 RMK A01 T01600109  RH  072%=      5-min Rain = 0
KMC5 240902Z 00010KT 16/11 A30 RMK A01 T01600109  RH  072%=      5-min Rain = 0
KMC5 240903Z 00010KT 16/11 A3001 RMK A01 T01600110  RH  072%=      5-min Rain = 0
KMC5 240904Z 00011KT 16/11 A3001 RMK A01 T01590110  RH  072%=      5-min Rain = 0
KMC5 240905Z 00010KT 16/11 A3001 RMK A01 T01590110  RH  073%=      5-min Rain = 0
KMC5 240906Z 00010KT 16/11 A30 RMK A01 T01580108  RH  072%=      5-min Rain = 0
KMC5 240907Z 00010KT 16/11 A3001 RMK A01 T01590108  RH  072%=      5-min Rain = 0
KMC5 240908Z 01010KT 16/11 A3001 RMK A01 T01590108  RH  072%=      5-min Rain = 0
KMC5 240909Z 00010KT 16/11 A3001 RMK A01 T01590108  RH  072%=      5-min Rain = 0
KMC5 240910Z 01010KT 16/11 A3001 RMK A01 T01590108  RH  072%=      5-min Rain = 0
KMC5 240911Z 01010KT 16/11 A3001 RMK A01 T01590109  RH  072%=      5-min Rain = 0
KMC5 240912Z 01010KT 16/11 A3001 RMK A01 T01590108  RH  072%=      5-min Rain = 0
KMC5 240913Z 01009KT 16/11 A3001 RMK A01 T01580107  RH  072%=      5-min Rain = 0
KMC5 240914Z 01010KT 16/11 A3001 RMK A01 T01590107  RH  071%=      5-min Rain = 0
KMC5 240915Z 01010KT 16/11 A3001 RMK A01 T01590107  RH  071%=      5-min Rain = 0
KMC5 240916Z 01010KT 16/11 A3001 RMK A01 T01590107  RH  071%=      5-min Rain = 0
KMC5 240917Z 00011KT 16/11 A3001 RMK A01 T01590107  RH  071%=      5-min Rain = 0
KMC5 240918Z 00011KT 16/11 A3001 RMK A01 T01590107  RH  071%=      5-min Rain = 0
KMC5 240919Z 01011KT 16/11 A30 RMK A01 T01590106  RH  071%=      5-min Rain = 0
KMC5 240920Z 01011KT 16/11 A30 RMK A01 T01600106  RH  070%=      5-min Rain = 0
KMC5 240921Z 00011KT 16/11 A30 RMK A01 T01600106  RH  070%=      5-min Rain = 0
KMC5 240922Z 00011KT 16/11 A30 RMK A01 T01600107  RH  071%=      5-min Rain = 0
KMC5 240923Z 01011KT 16/11 A30 RMK A01 T01600107  RH  071%=      5-min Rain = 0
KMC5 240924Z 00011KT 16/11 A30 RMK A01 T01590107  RH  071%=      5-min Rain = 0
KMC5 240925Z 00011KT 16/11 A30 RMK A01 T01590107  RH  071%=      5-min Rain = 0
KMC5 240926Z 00011KT 16/11 A30 RMK A01 T01590107  RH  071%=      5-min Rain = 0
KMC5 240927Z 00011KT 16/11 A30 RMK A01 T01590106  RH  071%=      5-min Rain = 0
KMC5 240928Z 00010KT 16/11 A30 RMK A01 T01590105  RH  070%=      5-min Rain = 0
KMC5 240929Z 00010KT 16/11 A30 RMK A01 T01600105  RH  070%=      5-min Rain = 0
KMC5 240930Z 00010KT 16/11 A30 RMK A01 T01600106  RH  070%=      5-min Rain = 0
KMC5 240931Z 00010KT 16/11 A30 RMK A01 T01600105  RH  070%=      5-min Rain = 0
KMC5 240932Z 00010KT 16/11 A30 RMK A01 T01600105  RH  070%=      5-min Rain = 0
KMC5 240933Z 00010KT 16/11 A30 RMK A01 T01600106  RH  070%=      5-min Rain = 0
KMC5 240934Z 00010KT 16/11 A30 RMK A01 T01600105  RH  069%=      5-min Rain = 0
KMC5 240935Z 00010KT 16/11 A30 RMK A01 T01600105  RH  070%=      5-min Rain = 0
KMC5 240936Z 00010KT 16/11 A30 RMK A01 T01600105  RH  070%=      5-min Rain = 0
KMC5 240937Z 00010KT 16/11 A30 RMK A01 T01600105  RH  070%=      5-min Rain = 0
KMC5 240938Z 00010KT 16/11 A30 RMK A01 T01600106  RH  070%=      5-min Rain = 0
KMC5 240939Z 00010KT 16/11 A30 RMK A01 T01600105  RH  070%=      5-min Rain = 0
KMC5 240940Z 00010KT 16/11 A30 RMK A01 T01600105  RH  070%=      5-min Rain = 0
KMC5 240941Z 00010KT 16/11 A30 RMK A01 T01600106  RH  070%=      5-min Rain = 0
KMC5 240942Z 00010KT 16/11 A30 RMK A01 T01600105  RH  070%=      5-min Rain = 0
KMC5 240943Z 00010KT 16/11 A30 RMK A01 T01600105  RH  070%=      5-min Rain = 0
KMC5 240944Z 00010KT 16/11 A30 RMK A01 T01600105  RH  070%=      5-min Rain = 0
KMC5 240945Z 00010KT 16/10 A30 RMK A01 T01600104  RH  069%=      5-min Rain = 0
KMC5 240946Z 00010KT 16/10 A30 RMK A01 T01600104  RH  069%=      5-min Rain = 0
KMC5 240947Z 00010KT 16/10 A30 RMK A01 T01610104  RH  069%=      5-min Rain = 0
KMC5 240948Z 00010KT 16/10 A30 RMK A01 T01610103  RH  069%=      5-min Rain = 0
KMC5 240949Z 00010KT 16/10 A30 RMK A01 T01610104  RH  069%=      5-min Rain = 0
KMC5 240950Z 00010KT 16/10 A30 RMK A01 T01620102  RH  068%=      5-min Rain = 0
KMC5 240951Z 00010KT 16/10 A30 RMK A01 T01620103  RH  068%=      5-min Rain = 0
KMC5 240952Z 00009KT 16/10 A30 RMK A01 T01620103  RH  068%=      5-min Rain = 0
KMC5 240953Z 00010KT 16/10 A30 RMK A01 T01620103  RH  068%=      5-min Rain = 0
KMC5 240954Z 00010KT 16/10 A30 RMK A01 T01620103  RH  068%=      5-min Rain = 0
KMC5 240955Z 00010KT 16/10 A3001 RMK A01 T01620103  RH  068%=      5-min Rain = 0
KMC5 240956Z 00010KT 16/10 A3001 RMK A01 T01610104  RH  069%=      5-min Rain = 0
KMC5 240957Z 00010KT 16/10 A3001 RMK A01 T01600104  RH  069%=      5-min Rain = 0
KMC5 240958Z 00009KT 16/10 A3001 RMK A01 T01600103  RH  069%=      5-min Rain = 0
KMC5 240959Z 00009KT 16/10 A3001 RMK A01 T01600104  RH  069%=      5-min Rain = 0
KMC5 241000Z 00009KT 16/10 A3001 RMK A01 T01590103  RH  069%=      5-min Rain = 0
KMC5 241001Z 00009KT 16/10 A3001 RMK A01 T01590103  RH  069%=      5-min Rain = 0
KMC5 241002Z 00009KT 16/10 A3001 RMK A01 T01600103  RH  069%=      5-min Rain = 0
KMC5 241003Z 00009KT 16/10 A3001 RMK A01 T01590104  RH  070%=      5-min Rain = 0
KMC5 241004Z 00009KT 16/10 A3001 RMK A01 T01580104  RH  070%=      5-min Rain = 0
KMC5 241005Z 00009KT 16/10 A3001 RMK A01 T01570104  RH  071%=      5-min Rain = 0
KMC5 241006Z 00009KT 16/11 A3001 RMK A01 T01570105  RH  071%=      5-min Rain = 0
KMC5 241007Z 00009KT 16/10 A3001 RMK A01 T01570104  RH  071%=      5-min Rain = 0
KMC5 241008Z 00009KT 16/10 A3001 RMK A01 T01570104  RH  071%=      5-min Rain = 0
KMC5 241009Z 00009KT 16/11 A3001 RMK A01 T01560105  RH  071%=      5-min Rain = 0
KMC5 241010Z 00009KT 16/10 A3001 RMK A01 T01560104  RH  071%=      5-min Rain = 0
KMC5 241011Z 00009KT 16/10 A3001 RMK A01 T01560104  RH  071%=      5-min Rain = 0
KMC5 241012Z 36009KT 16/10 A3001 RMK A01 T01560103  RH  071%=      5-min Rain = 0
KMC5 241013Z 36009KT 16/10 A3001 RMK A01 T01570103  RH  070%=      5-min Rain = 0
KMC5 241014Z 00010KT 16/10 A3001 RMK A01 T01570102  RH  070%=      5-min Rain = 0
KMC5 241015Z 36010KT 16/10 A3001 RMK A01 T01570102  RH  070%=      5-min Rain = 0
KMC5 241016Z 00010KT 16/10 A3001 RMK A01 T01580102  RH  069%=      5-min Rain = 0
KMC5 241017Z 00010KT 16/10 A3001 RMK A01 T01580101  RH  069%=      5-min Rain = 0
KMC5 241018Z 35010KT 16/10 A3001 RMK A01 T01580101  RH  069%=      5-min Rain = 0
KMC5 241019Z 36010KT 16/10 A3001 RMK A01 T01580101  RH  068%=      5-min Rain = 0
KMC5 241020Z 36010KT 16/10 A3001 RMK A01 T01590101  RH  068%=      5-min Rain = 0
KMC5 241021Z 36010KT 16/10 A3001 RMK A01 T01590101  RH  068%=      5-min Rain = 0
KMC5 241022Z 36010KT 16/10 A3001 RMK A01 T01600101  RH  068%=      5-min Rain = 0
KMC5 241023Z 36010KT 16/10 A3001 RMK A01 T01600102  RH  068%=      5-min Rain = 0
KMC5 241024Z 36010KT 16/10 A3001 RMK A01 T01600103  RH  069%=      5-min Rain = 0
KMC5 241025Z 00011KT 16/10 A3001 RMK A01 T01590103  RH  070%=      5-min Rain = 0
KMC5 241026Z 36011KT 16/10 A3001 RMK A01 T01580103  RH  070%=      5-min Rain = 0
KMC5 241027Z 00011KT 16/10 A3001 RMK A01 T01580104  RH  070%=      5-min Rain = 0
KMC5 241028Z 36011KT 16/10 A3001 RMK A01 T01570103  RH  070%=      5-min Rain = 0
KMC5 241029Z 00011KT 16/10 A3001 RMK A01 T01570103  RH  070%=      5-min Rain = 0
KMC5 241030Z 36011KT 16/10 A3001 RMK A01 T01570104  RH  071%=      5-min Rain = 0
KMC5 241031Z 00011KT 16/10 A3001 RMK A01 T01570103  RH  070%=      5-min Rain = 0
KMC5 241032Z 36011KT 16/10 A3001 RMK A01 T01570102  RH  070%=      5-min Rain = 0
KMC5 241033Z 36011KT 16/10 A3001 RMK A01 T01570101  RH  069%=      5-min Rain = 0
KMC5 241034Z 36010KT 16/10 A3001 RMK A01 T01570102  RH  069%=      5-min Rain = 0
KMC5 241035Z 36010KT 16/10 A3001 RMK A01 T01570103  RH  070%=      5-min Rain = 0
KMC5 241036Z 36010KT 16/10 A3001 RMK A01 T01570104  RH  071%=      5-min Rain = 0
KMC5 241037Z 36009KT 16/10 A3001 RMK A01 T01560103  RH  071%=      5-min Rain = 0
KMC5 241038Z 00009KT 16/10 A3001 RMK A01 T01550103  RH  071%=      5-min Rain = 0
KMC5 241039Z 36010KT 16/10 A3001 RMK A01 T01550104  RH  071%=      5-min Rain = 0
KMC5 241040Z 00010KT 15/10 A3001 RMK A01 T01540104  RH  072%=      5-min Rain = 0
KMC5 241041Z 36010KT 15/10 A3001 RMK A01 T01530104  RH  072%=      5-min Rain = 0
KMC5 241042Z 36011KT 15/10 A3002 RMK A01 T01530104  RH  073%=      5-min Rain = 0
KMC5 241043Z 36011KT 15/10 A3002 RMK A01 T01530104  RH  073%=      5-min Rain = 0
KMC5 241044Z 36010KT 15/10 A3002 RMK A01 T01520104  RH  073%=      5-min Rain = 0
KMC5 241045Z 36010KT 15/10 A3002 RMK A01 T01530104  RH  073%=      5-min Rain = 0
KMC5 241046Z 36010KT 15/10 A3002 RMK A01 T01520104  RH  073%=      5-min Rain = 0
KMC5 241047Z 36010KT 15/10 A3002 RMK A01 T01520104  RH  073%=      5-min Rain = 0
KMC5 241048Z 36010KT 15/11 A3002 RMK A01 T01520105  RH  073%=      5-min Rain = 0
KMC5 241049Z 36011KT 15/11 A3002 RMK A01 T01520105  RH  074%=      5-min Rain = 0
KMC5 241050Z 36011KT 15/10 A3002 RMK A01 T01510104  RH  073%=      5-min Rain = 0
KMC5 241051Z 36010KT 15/10 A3002 RMK A01 T01520104  RH  073%=      5-min Rain = 0
KMC5 241052Z 36010KT 15/10 A3002 RMK A01 T01520104  RH  073%=      5-min Rain = 0
KMC5 241053Z 36011KT 15/10 A3002 RMK A01 T01520103  RH  073%=      5-min Rain = 0
KMC5 241054Z 36011KT 15/10 A3002 RMK A01 T01520104  RH  073%=      5-min Rain = 0
KMC5 241055Z 36011KT 15/11 A3002 RMK A01 T01520105  RH  073%=      5-min Rain = 0
KMC5 241056Z 35011KT 15/11 A3002 RMK A01 T01510105  RH  074%=      5-min Rain = 0
KMC5 241057Z 36010KT 15/11 A3002 RMK A01 T01500106  RH  075%=      5-min Rain = 0
KMC5 241058Z 35010KT 15/11 A3002 RMK A01 T01490106  RH  075%=      5-min Rain = 0
KMC5 241059Z 35011KT 15/11 A3002 RMK A01 T01490106  RH  076%=      5-min Rain = 0
KMC5 241100Z 35011KT 15/11 A3002 RMK A01 T01480106  RH  076%=      5-min Rain = 0
KMC5 241101Z 35011KT 15/11 A3002 RMK A01 T01480106  RH  076%=      5-min Rain = 0
KMC5 241102Z 36011KT 15/11 A3002 RMK A01 T01480105  RH  076%=      5-min Rain = 0
KMC5 241103Z 36011KT 15/11 A3002 RMK A01 T01480105  RH  075%=      5-min Rain = 0
KMC5 241104Z 36011KT 15/11 A3002 RMK A01 T01480105  RH  075%=      5-min Rain = 0
KMC5 241105Z 36011KT 15/11 A3003 RMK A01 T01490106  RH  075%=      5-min Rain = 0
KMC5 241106Z 36011KT 15/11 A3003 RMK A01 T01490106  RH  075%=      5-min Rain = 0
KMC5 241107Z 36011KT 15/11 A3003 RMK A01 T01490106  RH  075%=      5-min Rain = 0
KMC5 241108Z 36011KT 15/11 A3003 RMK A01 T01480105  RH  076%=      5-min Rain = 0
KMC5 241109Z 36011KT 15/10 A3003 RMK A01 T01480104  RH  075%=      5-min Rain = 0
KMC5 241110Z 00011KT 15/10 A3003 RMK A01 T01480104  RH  075%=      5-min Rain = 0
KMC5 241111Z 36011KT 15/11 A3003 RMK A01 T01490105  RH  075%=      5-min Rain = 0
KMC5 241112Z 35011KT 15/10 A3003 RMK A01 T01490104  RH  074%=      5-min Rain = 0
KMC5 241113Z 35011KT 15/10 A3003 RMK A01 T01500104  RH  074%=      5-min Rain = 0
KMC5 241114Z 36011KT 15/10 A3003 RMK A01 T01500104  RH  074%=      5-min Rain = 0
KMC5 241115Z 36011KT 15/11 A3003 RMK A01 T01500105  RH  075%=      5-min Rain = 0
KMC5 241116Z 35012KT 15/11 A3003 RMK A01 T01490106  RH  075%=      5-min Rain = 0
KMC5 241117Z 36012KT 15/11 A3003 RMK A01 T01490106  RH  075%=      5-min Rain = 0
KMC5 241118Z 00012KT 15/11 A3003 RMK A01 T01480105  RH  075%=      5-min Rain = 0
KMC5 241119Z 36012KT 15/11 A3003 RMK A01 T01480105  RH  075%=      5-min Rain = 0
KMC5 241120Z 00012KT 15/11 A3003 RMK A01 T01480105  RH  075%=      5-min Rain = 0
KMC5 241121Z 36012KT 15/11 A3003 RMK A01 T01480105  RH  076%=      5-min Rain = 0
KMC5 241122Z 36012KT 15/11 A3003 RMK A01 T01480105  RH  076%=      5-min Rain = 0
KMC5 241123Z 36012KT 15/11 A3003 RMK A01 T01470105  RH  076%=      5-min Rain = 0
KMC5 241124Z 36011KT 15/11 A3003 RMK A01 T01470105  RH  076%=      5-min Rain = 0
KMC5 241125Z 36011KT 15/11 A3003 RMK A01 T01470105  RH  076%=      5-min Rain = 0
KMC5 241126Z 35011KT 15/10 A3003 RMK A01 T01470104  RH  076%=      5-min Rain = 0
KMC5 241127Z 36011KT 15/10 A3003 RMK A01 T01470104  RH  075%=      5-min Rain = 0
KMC5 241128Z 36010KT 15/10 A3003 RMK A01 T01470104  RH  075%=      5-min Rain = 0
KMC5 241129Z 36010KT 15/10 A3003 RMK A01 T01470104  RH  075%=      5-min Rain = 0
KMC5 241130Z 36011KT 15/10 A3003 RMK A01 T01470104  RH  075%=      5-min Rain = 0
KMC5 241131Z 35010KT 15/10 A3003 RMK A01 T01470103  RH  075%=      5-min Rain = 0
KMC5 241132Z 36010KT 15/10 A3003 RMK A01 T01470102  RH  074%=      5-min Rain = 0
KMC5 241133Z 36010KT 15/10 A3003 RMK A01 T01480102  RH  074%=      5-min Rain = 0
KMC5 241134Z 35010KT 15/10 A3003 RMK A01 T01480102  RH  074%=      5-min Rain = 0
KMC5 241135Z 36010KT 15/10 A3003 RMK A01 T01480103  RH  074%=      5-min Rain = 0
KMC5 241136Z 36011KT 15/10 A3003 RMK A01 T01480103  RH  074%=      5-min Rain = 0
KMC5 241137Z 35011KT 15/10 A3003 RMK A01 T01470102  RH  074%=      5-min Rain = 0
KMC5 241138Z 35012KT 15/10 A3003 RMK A01 T01470101  RH  074%=      5-min Rain = 0
KMC5 241139Z 35012KT 15/10 A3003 RMK A01 T01480100  RH  073%=      5-min Rain = 0
KMC5 241140Z 35012KT 15/10 A3003 RMK A01 T01490100  RH  072%=      5-min Rain = 0
KMC5 241141Z 35011KT 15/10 A3003 RMK A01 T01500100  RH  072%=      5-min Rain = 0
KMC5 241142Z 35011KT 15/10 A3003 RMK A01 T01500100  RH  072%=      5-min Rain = 0
KMC5 241143Z 36011KT 15/10 A3003 RMK A01 T01500100  RH  072%=      5-min Rain = 0
KMC5 241144Z 35011KT 15/10 A3003 RMK A01 T01500100  RH  072%=      5-min Rain = 0
KMC5 241145Z 35011KT 15/10 A3003 RMK A01 T01500101  RH  072%=      5-min Rain = 0
KMC5 241146Z 35011KT 15/10 A3003 RMK A01 T01500100  RH  072%=      5-min Rain = 0
KMC5 241147Z 35011KT 15/10 A3003 RMK A01 T01500100  RH  072%=      5-min Rain = 0
KMC5 241148Z 35011KT 15/10 A3003 RMK A01 T01510100  RH  072%=      5-min Rain = 0
KMC5 241149Z 35011KT 15/10 A3003 RMK A01 T01510102  RH  072%=      5-min Rain = 0
KMC5 241150Z 35011KT 15/10 A3003 RMK A01 T01500102  RH  073%=      5-min Rain = 0
KMC5 241151Z 35011KT 15/10 A3003 RMK A01 T01500103  RH  073%=      5-min Rain = 0
KMC5 241152Z 35012KT 15/10 A3003 RMK A01 T01500102  RH  073%=      5-min Rain = 0
KMC5 241153Z 35012KT 15/10 A3003 RMK A01 T01500101  RH  072%=      5-min Rain = 0
KMC5 241154Z 35012KT 15/10 A3003 RMK A01 T01510101  RH  072%=      5-min Rain = 0
KMC5 241155Z 36012KT 15/10 A3003 RMK A01 T01520100  RH  071%=      5-min Rain = 0
KMC5 241156Z 35012KT 15/10 A3003 RMK A01 T01530100  RH  071%=      5-min Rain = 0
KMC5 241157Z 35011KT 15/10 A3003 RMK A01 T01540100  RH  070%=      5-min Rain = 0
KMC5 241158Z 35011KT 15/10 A3003 RMK A01 T01540101  RH  071%=      5-min Rain = 0
KMC5 241159Z 36011KT 15/10 A3003 RMK A01 T01540101  RH  071%=      5-min Rain = 0
KMC5 241200Z 35011KT 15/10 A3003 RMK A01 T01540101  RH  071%=      5-min Rain = 0
KMC5 241201Z 35012KT 15/10 A3003 RMK A01 T01540098  RH  069%=      5-min Rain = 0
KMC5 241202Z 36012KT 16/10 A3003 RMK A01 T01550097  RH  069%=      5-min Rain = 0
KMC5 241203Z 35012KT 16/10 A3003 RMK A01 T01560099  RH  069%=      5-min Rain = 0
KMC5 241204Z 35011KT 16/10 A3003 RMK A01 T01560098  RH  068%=      5-min Rain = 0
KMC5 241205Z 35011KT 16/10 A3003 RMK A01 T01560100  RH  069%=      5-min Rain = 0
KMC5 241206Z 35011KT 16/10 A3003 RMK A01 T01560101  RH  070%=      5-min Rain = 0
KMC5 241207Z 36011KT 16/10 A3003 RMK A01 T01560101  RH  070%=      5-min Rain = 0
KMC5 241208Z 36012KT 16/10 A3003 RMK A01 T01550101  RH  070%=      5-min Rain = 0
KMC5 241209Z 36011KT 16/10 A3003 RMK A01 T01550101  RH  070%=      5-min Rain = 0
KMC5 241210Z 36011KT 16/10 A3003 RMK A01 T01550102  RH  070%=      5-min Rain = 0
KMC5 241211Z 36010KT 16/10 A3003 RMK A01 T01550101  RH  070%=      5-min Rain = 0
KMC5 241212Z 36011KT 16/10 A3003 RMK A01 T01550100  RH  070%=      5-min Rain = 0
KMC5 241213Z 36011KT 16/10 A3003 RMK A01 T01560099  RH  069%=      5-min Rain = 0
KMC5 241214Z 36011KT 16/10 A3003 RMK A01 T01570098  RH  068%=      5-min Rain = 0
KMC5 241215Z 35011KT 16/10 A3003 RMK A01 T01570096  RH  067%=      5-min Rain = 0
KMC5 241216Z 35011KT 16/10 A3003 RMK A01 T01580096  RH  066%=      5-min Rain = 0
KMC5 241217Z 36009KT 16/10 A3003 RMK A01 T01580097  RH  067%=      5-min Rain = 0
KMC5 241218Z 35010KT 16/10 A3003 RMK A01 T01590097  RH  067%=      5-min Rain = 0
KMC5 241219Z 35010KT 16/10 A3003 RMK A01 T01590096  RH  066%=      5-min Rain = 0
KMC5 241220Z 36009KT 16/10 A3003 RMK A01 T01600096  RH  066%=      5-min Rain = 0
KMC5 241221Z 36010KT 16/10 A3003 RMK A01 T01600096  RH  066%=      5-min Rain = 0
KMC5 241222Z 36009KT 16/09 A3003 RMK A01 T01610094  RH  065%=      5-min Rain = 0
KMC5 241223Z 36009KT 16/10 A3003 RMK A01 T01610096  RH  065%=      5-min Rain = 0
KMC5 241224Z 36009KT 16/10 A3003 RMK A01 T01610096  RH  066%=      5-min Rain = 0
KMC5 241225Z 36009KT 16/10 A3003 RMK A01 T01610097  RH  066%=      5-min Rain = 0
KMC5 241226Z 36011KT 16/10 A3003 RMK A01 T01610095  RH  065%=      5-min Rain = 0
KMC5 241227Z 36010KT 16/09 A3003 RMK A01 T01620094  RH  064%=      5-min Rain = 0
KMC5 241228Z 36010KT 16/09 A3003 RMK A01 T01620093  RH  063%=      5-min Rain = 0
KMC5 241229Z 36012KT 16/09 A3003 RMK A01 T01630092  RH  063%=      5-min Rain = 0
KMC5 241230Z 36011KT 16/09 A3003 RMK A01 T01630089  RH  061%=      5-min Rain = 0
KMC5 241231Z 36011KT 16/09 A3003 RMK A01 T01640092  RH  063%=      5-min Rain = 0
KMC5 241232Z 00011KT 16/09 A3003 RMK A01 T01640093  RH  063%=      5-min Rain = 0
KMC5 241233Z 36011KT 16/09 A3003 RMK A01 T01640092  RH  063%=      5-min Rain = 0
KMC5 241234Z 00011KT 16/09 A3003 RMK A01 T01640091  RH  062%=      5-min Rain = 0
KMC5 241235Z 00011KT 17/09 A3003 RMK A01 T01650090  RH  061%=      5-min Rain = 0
KMC5 241236Z 36012KT 17/09 A3003 RMK A01 T01660087  RH  059%=      5-min Rain = 0
KMC5 241237Z 36011KT 17/09 A3003 RMK A01 T01670088  RH  060%=      5-min Rain = 0
KMC5 241238Z 36011KT 17/09 A3003 RMK A01 T01670085  RH  058%=      5-min Rain = 0
KMC5 241239Z 36011KT 17/09 A3003 RMK A01 T01680087  RH  059%=      5-min Rain = 0
KMC5 241240Z 00010KT 17/09 A3003 RMK A01 T01680088  RH  059%=      5-min Rain = 0
KMC5 241241Z 36010KT 17/09 A3003 RMK A01 T01690088  RH  059%=      5-min Rain = 0
KMC5 241242Z 36010KT 17/09 A3004 RMK A01 T01690089  RH  059%=      5-min Rain = 0
KMC5 241243Z 36009KT 17/09 A3004 RMK A01 T01690088  RH  059%=      5-min Rain = 0
KMC5 241244Z 36009KT 17/09 A3004 RMK A01 T01700089  RH  059%=      5-min Rain = 0
KMC5 241245Z 36010KT 17/09 A3004 RMK A01 T01710087  RH  057%=      5-min Rain = 0
KMC5 241246Z 36010KT 17/09 A3004 RMK A01 T01720085  RH  057%=      5-min Rain = 0
KMC5 241247Z 36011KT 17/08 A3004 RMK A01 T01730084  RH  056%=      5-min Rain = 0
KMC5 241248Z 36011KT 17/08 A3004 RMK A01 T01730082  RH  055%=      5-min Rain = 0
KMC5 241249Z 36010KT 17/08 A3004 RMK A01 T01730083  RH  055%=      5-min Rain = 0
KMC5 241250Z 00010KT 17/08 A3004 RMK A01 T01730084  RH  056%=      5-min Rain = 0
KMC5 241251Z 00009KT 17/09 A3004 RMK A01 T01740086  RH  056%=      5-min Rain = 0
KMC5 241252Z 00010KT 17/08 A3004 RMK A01 T01740084  RH  055%=      5-min Rain = 0
KMC5 241253Z 00010KT 18/08 A3004 RMK A01 T01750081  RH  054%=      5-min Rain = 0
KMC5 241254Z 00010KT 18/08 A3004 RMK A01 T01760080  RH  054%=      5-min Rain = 0
KMC5 241255Z 01009KT 18/08 A3004 RMK A01 T01760084  RH  055%=      5-min Rain = 0
KMC5 241256Z 00008KT 18/09 A3004 RMK A01 T01770086  RH  055%=      5-min Rain = 0
KMC5 241257Z 01009KT 18/09 A3004 RMK A01 T01780085  RH  055%=      5-min Rain = 0
KMC5 241258Z 00010KT 18/08 A3004 RMK A01 T01780081  RH  053%=      5-min Rain = 0
KMC5 241259Z 00010KT 18/08 A3004 RMK A01 T01790083  RH  053%=      5-min Rain = 0
KMC5 241300Z 01010KT 18/08 A3004 RMK A01 T01790080  RH  052%=      5-min Rain = 0
KMC5 241301Z 01009KT 18/08 A3004 RMK A01 T01790081  RH  053%=      5-min Rain = 0
KMC5 241302Z 01010KT 18/08 A3004 RMK A01 T01790082  RH  053%=      5-min Rain = 0
KMC5 241303Z 01010KT 18/08 A3004 RMK A01 T01800079  RH  052%=      5-min Rain = 0
KMC5 241304Z 01009KT 18/08 A3004 RMK A01 T01800079  RH  052%=      5-min Rain = 0
KMC5 241305Z 01009KT 18/08 A3004 RMK A01 T01810083  RH  053%=      5-min Rain = 0
KMC5 241306Z 01010KT 18/08 A3004 RMK A01 T01820082  RH  052%=      5-min Rain = 0
KMC5 241307Z 01010KT 18/08 A3004 RMK A01 T01820083  RH  052%=      5-min Rain = 0
KMC5 241308Z 01010KT 18/08 A3004 RMK A01 T01830079  RH  051%=      5-min Rain = 0
KMC5 241309Z 01009KT 18/08 A3004 RMK A01 T01830081  RH  052%=      5-min Rain = 0
KMC5 241310Z 01010KT 18/08 A3004 RMK A01 T01830083  RH  052%=      5-min Rain = 0
KMC5 241311Z 01009KT 18/08 A3004 RMK A01 T01830083  RH  052%=      5-min Rain = 0
KMC5 241312Z 01008KT 18/09 A3004 RMK A01 T01840087  RH  053%=      5-min Rain = 0
KMC5 241313Z 01009KT 18/08 A3004 RMK A01 T01840083  RH  052%=      5-min Rain = 0
KMC5 241314Z 01010KT 19/08 A3004 RMK A01 T01850084  RH  052%=      5-min Rain = 0
KMC5 241315Z 01010KT 19/08 A3004 RMK A01 T01860077  RH  049%=      5-min Rain = 0
KMC5 241316Z 01009KT 19/08 A3004 RMK A01 T01860080  RH  050%=      5-min Rain = 0
KMC5 241317Z 01010KT 19/08 A3004 RMK A01 T01860080  RH  050%=      5-min Rain = 0
KMC5 241318Z 01008KT 19/08 A3004 RMK A01 T01870083  RH  051%=      5-min Rain = 0
KMC5 241319Z 01008KT 19/08 A3004 RMK A01 T01880083  RH  050%=      5-min Rain = 0
KMC5 241320Z 01010KT 19/08 A3004 RMK A01 T01880082  RH  050%=      5-min Rain = 0
KMC5 241321Z 01009KT 19/08 A3004 RMK A01 T01890080  RH  049%=      5-min Rain = 0
KMC5 241322Z 01009KT 19/08 A3004 RMK A01 T01890077  RH  048%=      5-min Rain = 0
KMC5 241323Z 01009KT 19/08 A3004 RMK A01 T01900079  RH  049%=      5-min Rain = 0
KMC5 241324Z 01009KT 19/08 A3004 RMK A01 T01900080  RH  049%=      5-min Rain = 0
KMC5 241325Z 00009KT 19/08 A3004 RMK A01 T01910080  RH  048%=      5-min Rain = 0
KMC5 241326Z 00008KT 19/08 A3004 RMK A01 T01910079  RH  048%=      5-min Rain = 0
KMC5 241327Z 01007KT 19/08 A3004 RMK A01 T01920083  RH  049%=      5-min Rain = 0
KMC5 241328Z 02007KT 19/08 A3004 RMK A01 T01930083  RH  049%=      5-min Rain = 0
KMC5 241329Z 02007KT 19/08 A3004 RMK A01 T01940082  RH  048%=      5-min Rain = 0
KMC5 241330Z 02008KT 20/08 A3004 RMK A01 T01950078  RH  047%=      5-min Rain = 0
KMC5 241331Z 03008KT 20/08 A3004 RMK A01 T01950076  RH  046%=      5-min Rain = 0
KMC5 241332Z 03008KT 20/08 A3004 RMK A01 T01950079  RH  047%=      5-min Rain = 0
KMC5 241333Z 02007KT 20/08 A3004 RMK A01 T01960079  RH  047%=      5-min Rain = 0
KMC5 241334Z 03007KT 20/08 A3004 RMK A01 T01960082  RH  047%=      5-min Rain = 0
KMC5 241335Z 03008KT 20/08 A3004 RMK A01 T01970080  RH  047%=      5-min Rain = 0
KMC5 241336Z 03008KT 20/08 A3004 RMK A01 T01970077  RH  046%=      5-min Rain = 0
KMC5 241337Z 03008KT 20/08 A3004 RMK A01 T01970078  RH  046%=      5-min Rain = 0
KMC5 241338Z 03009KT 20/08 A3004 RMK A01 T01970078  RH  046%=      5-min Rain = 0
KMC5 241339Z 02009KT 20/07 A3004 RMK A01 T01970074  RH  045%=      5-min Rain = 0
KMC5 241340Z 02008KT 20/08 A3004 RMK A01 T01970075  RH  045%=      5-min Rain = 0
KMC5 241341Z 03007KT 20/08 A3004 RMK A01 T01970078  RH  046%=      5-min Rain = 0
KMC5 241342Z 03007KT 20/08 A3004 RMK A01 T01970078  RH  046%=      5-min Rain = 0
KMC5 241343Z 03006KT 20/08 A3004 RMK A01 T01970076  RH  045%=      5-min Rain = 0
KMC5 241344Z 03005KT 20/08 A3004 RMK A01 T01980082  RH  047%=      5-min Rain = 0
KMC5 241345Z 03007KT 20/08 A3004 RMK A01 T01990078  RH  046%=      5-min Rain = 0
KMC5 241346Z 03007KT 20/07 A3004 RMK A01 T01990074  RH  044%=      5-min Rain = 0
KMC5 241347Z 03006KT 20/08 A3005 RMK A01 T01980077  RH  045%=      5-min Rain = 0
KMC5 241348Z 03007KT 20/08 A3005 RMK A01 T01980077  RH  045%=      5-min Rain = 0
KMC5 241349Z 02006KT 20/08 A3005 RMK A01 T01990075  RH  045%=      5-min Rain = 0
KMC5 241350Z 02004KT 20/08 A3005 RMK A01 T01990079  RH  046%=      5-min Rain = 0
KMC5 241351Z 02005KT 20/08 A3005 RMK A01 T01990077  RH  045%=      5-min Rain = 0
KMC5 241352Z 03004KT 20/08 A3005 RMK A01 T02000082  RH  047%=      5-min Rain = 0
KMC5 241353Z 05003KT 20/08 A3005 RMK A01 T02000080  RH  046%=      5-min Rain = 0
KMC5 241354Z 05004KT 20/09 A3005 RMK A01 T02010085  RH  047%=      5-min Rain = 0
KMC5 241355Z 04005KT 20/08 A3005 RMK A01 T02030080  RH  045%=      5-min Rain = 0
KMC5 241356Z 04004KT 20/08 A3005 RMK A01 T02030083  RH  046%=      5-min Rain = 0
KMC5 241357Z 04004KT 20/08 A3005 RMK A01 T02030075  RH  044%=      5-min Rain = 0
KMC5 241358Z 03003KT 20/08 A3005 RMK A01 T02030083  RH  046%=      5-min Rain = 0
KMC5 241359Z 05006KT 20/08 A3005 RMK A01 T02040080  RH  045%=      5-min Rain = 0
KMC5 241400Z 04005KT 20/08 A3005 RMK A01 T02040076  RH  044%=      5-min Rain = 0
KMC5 241401Z 02005KT 20/08 A3005 RMK A01 T02040081  RH  045%=      5-min Rain = 0
KMC5 241402Z 02004KT 21/08 A3005 RMK A01 T02050080  RH  044%=      5-min Rain = 0
KMC5 241403Z 02006KT 21/08 A3005 RMK A01 T02050075  RH  043%=      5-min Rain = 0
KMC5 241404Z 01005KT 21/07 A3005 RMK A01 T02050073  RH  042%=      5-min Rain = 0
KMC5 241405Z 01005KT 21/07 A3005 RMK A01 T02050073  RH  042%=      5-min Rain = 0
KMC5 241406Z 02005KT 21/08 A3005 RMK A01 T02050076  RH  043%=      5-min Rain = 0
KMC5 241407Z 02004KT 21/07 A3005 RMK A01 T02050071  RH  042%=      5-min Rain = 0
KMC5 241408Z 01005KT 21/08 A3005 RMK A01 T02060076  RH  043%=      5-min Rain = 0
KMC5 241409Z 01005KT 21/08 A3005 RMK A01 T02060075  RH  043%=      5-min Rain = 0
KMC5 241410Z 01005KT 21/08 A3005 RMK A01 T02060077  RH  043%=      5-min Rain = 0
KMC5 241411Z 01004KT 21/07 A3005 RMK A01 T02060073  RH  042%=      5-min Rain = 0
KMC5 241412Z 03003KT 21/07 A3005 RMK A01 T02060072  RH  042%=      5-min Rain = 0
KMC5 241413Z 01004KT 21/08 A3005 RMK A01 T02050077  RH  043%=      5-min Rain = 0
KMC5 241414Z 01005KT 21/08 A3005 RMK A01 T02060079  RH  044%=      5-min Rain = 0
KMC5 241415Z 01005KT 21/07 A3005 RMK A01 T02070070  RH  041%=      5-min Rain = 0
KMC5 241416Z 02005KT 21/07 A3005 RMK A01 T02080072  RH  041%=      5-min Rain = 0
KMC5 241417Z 01005KT 21/07 A3005 RMK A01 T02080072  RH  042%=      5-min Rain = 0
KMC5 241418Z 02005KT 21/07 A3005 RMK A01 T02080073  RH  042%=      5-min Rain = 0
KMC5 241419Z 02005KT 21/08 A3005 RMK A01 T02080077  RH  043%=      5-min Rain = 0
KMC5 241420Z 01005KT 21/07 A3005 RMK A01 T02090074  RH  042%=      5-min Rain = 0
KMC5 241421Z 02005KT 21/08 A3005 RMK A01 T02090077  RH  043%=      5-min Rain = 0
KMC5 241422Z 03005KT 21/07 A3005 RMK A01 T02100070  RH  040%=      5-min Rain = 0
KMC5 241423Z 02005KT 21/07 A3005 RMK A01 T02100070  RH  040%=      5-min Rain = 0
KMC5 241424Z 02003KT 21/08 A3005 RMK A01 T02100076  RH  042%=      5-min Rain = 0
KMC5 241425Z 01004KT 21/08 A3005 RMK A01 T02100077  RH  042%=      5-min Rain = 0
KMC5 241426Z 01004KT 21/07 A3005 RMK A01 T02110073  RH  041%=      5-min Rain = 0
KMC5 241427Z 02004KT 21/07 A3005 RMK A01 T02110073  RH  041%=      5-min Rain = 0
KMC5 241428Z 01003KT 21/07 A3005 RMK A01 T02110067  RH  039%=      5-min Rain = 0
KMC5 241429Z 00004KT 21/07 A3005 RMK A01 T02110073  RH  041%=      5-min Rain = 0
KMC5 241430Z 00004KT 21/07 A3005 RMK A01 T02120070  RH  040%=      5-min Rain = 0
KMC5 241431Z 01004KT 21/08 A3005 RMK A01 T02120076  RH  042%=      5-min Rain = 0
KMC5 241432Z 01004KT 21/07 A3005 RMK A01 T02120067  RH  039%=      5-min Rain = 0
KMC5 241433Z 00004KT 21/06 A3005 RMK A01 T02130062  RH  038%=      5-min Rain = 0
KMC5 241434Z 35005KT 21/07 A3005 RMK A01 T02120067  RH  039%=      5-min Rain = 0
KMC5 241435Z 00004KT 21/08 A3005 RMK A01 T02130079  RH  042%=      5-min Rain = 0
KMC5 241436Z 36005KT 21/07 A3005 RMK A01 T02140070  RH  039%=      5-min Rain = 0
KMC5 241437Z 00004KT 21/07 A3005 RMK A01 T02140066  RH  038%=      5-min Rain = 0
KMC5 241438Z 35003KT 21/07 A3005 RMK A01 T02140074  RH  040%=      5-min Rain = 0
KMC5 241439Z 01003KT 21/08 A3005 RMK A01 T02140076  RH  041%=      5-min Rain = 0
KMC5 241440Z 02004KT 22/07 A3005 RMK A01 T02150071  RH  039%=      5-min Rain = 0
KMC5 241441Z 01003KT 22/07 A3005 RMK A01 T02150067  RH  038%=      5-min Rain = 0
KMC5 241442Z 00002KT 22/07 A3005 RMK A01 T02160074  RH  040%=      5-min Rain = 0
KMC5 241443Z 02002KT 22/07 A3005 RMK A01 T02160070  RH  039%=      5-min Rain = 0
KMC5 241444Z 01003KT 22/08 A3005 RMK A01 T02170075  RH  040%=      5-min Rain = 0
KMC5 241445Z 36003KT 22/08 A3005 RMK A01 T02180079  RH  041%=      5-min Rain = 0
KMC5 241446Z 34003KT 22/08 A3005 RMK A01 T02190079  RH  041%=      5-min Rain = 0
KMC5 241447Z 35002KT 22/07 A3005 RMK A01 T02190073  RH  039%=      5-min Rain = 0
KMC5 241448Z 35003KT 22/08 A3005 RMK A01 T02190079  RH  041%=      5-min Rain = 0
KMC5 241449Z 34003KT 22/07 A3005 RMK A01 T02190074  RH  039%=      5-min Rain = 0
KMC5 241450Z 34003KT 22/07 A3005 RMK A01 T02180069  RH  038%=      5-min Rain = 0
KMC5 241451Z 33002KT 22/08 A3005 RMK A01 T02180076  RH  040%=      5-min Rain = 0
KMC5 241452Z 33002KT 22/08 A3005 RMK A01 T02180075  RH  040%=      5-min Rain = 0
KMC5 241453Z 32001KT 22/08 A3005 RMK A01 T02180079  RH  041%=      5-min Rain = 0
KMC5 241454Z 33001KT 22/08 A3005 RMK A01 T02180077  RH  040%=      5-min Rain = 0
KMC5 241455Z 34001KT 22/07 A3005 RMK A01 T02190074  RH  039%=      5-min Rain = 0
KMC5 241456Z 02002KT 22/09 A3005 RMK A01 T02200088  RH  043%=      5-min Rain = 0
KMC5 241457Z 00002KT 22/07 A3005 RMK A01 T02220071  RH  038%=      5-min Rain = 0
KMC5 241458Z 34002KT 22/08 A3005 RMK A01 T02220079  RH  040%=      5-min Rain = 0
KMC5 241459Z 32000KT 22/09 A3005 RMK A01 T02230087  RH  042%=      5-min Rain = 0
KMC5 241500Z 00000KT 23/09 A3005 RMK A01 T02250088  RH  042%=      5-min Rain = 0
KMC5 241501Z 35001KT 23/09 A3005 RMK A01 T02270088  RH  041%=      5-min Rain = 0
KMC5 241502Z 04002KT 23/09 A3005 RMK A01 T02290090  RH  041%=      5-min Rain = 0
KMC5 241503Z 06002KT 23/09 A3005 RMK A01 T02300087  RH  040%=      5-min Rain = 0
KMC5 241504Z 07002KT 23/08 A3005 RMK A01 T02310084  RH  039%=      5-min Rain = 0
KMC5 241505Z 10002KT 23/09 A3005 RMK A01 T02300086  RH  040%=      5-min Rain = 0
KMC5 241506Z 09002KT 23/09 A3005 RMK A01 T02290087  RH  040%=      5-min Rain = 0
KMC5 241507Z 10001KT 23/09 A3005 RMK A01 T02280085  RH  040%=      5-min Rain = 0
KMC5 241508Z 09001KT 23/08 A3006 RMK A01 T02280084  RH  040%=      5-min Rain = 0
KMC5 241509Z 07003KT 23/09 A3006 RMK A01 T02290089  RH  041%=      5-min Rain = 0
KMC5 241510Z 06002KT 23/08 A3006 RMK A01 T02290079  RH  038%=      5-min Rain = 0
KMC5 241511Z 09003KT 23/08 A3006 RMK A01 T02290084  RH  039%=      5-min Rain = 0
KMC5 241512Z 05002KT 23/08 A3006 RMK A01 T02290078  RH  038%=      5-min Rain = 0
KMC5 241513Z 01001KT 23/08 A3005 RMK A01 T02290077  RH  038%=      5-min Rain = 0
KMC5 241514Z 04001KT 23/09 A3005 RMK A01 T02290094  RH  042%=      5-min Rain = 0
KMC5 241515Z 06003KT 23/09 A3005 RMK A01 T02310091  RH  041%=      5-min Rain = 0
KMC5 241516Z 06004KT 23/08 A3005 RMK A01 T02320079  RH  037%=      5-min Rain = 0
KMC5 241517Z 07002KT 23/08 A3005 RMK A01 T02310081  RH  038%=      5-min Rain = 0
KMC5 241518Z 07001KT 23/08 A3005 RMK A01 T02310077  RH  037%=      5-min Rain = 0
KMC5 241519Z 14002KT 23/09 A3005 RMK A01 T02310087  RH  040%=      5-min Rain = 0
KMC5 241520Z 12002KT 23/08 A3006 RMK A01 T02330083  RH  038%=      5-min Rain = 0
KMC5 241521Z 10002KT 23/08 A3006 RMK A01 T02340084  RH  038%=      5-min Rain = 0
KMC5 241522Z 10003KT 24/09 A3006 RMK A01 T02350086  RH  039%=      5-min Rain = 0
KMC5 241523Z 12002KT 23/08 A3006 RMK A01 T02330081  RH  038%=      5-min Rain = 0
KMC5 241524Z 10001KT 23/09 A3006 RMK A01 T02320086  RH  039%=      5-min Rain = 0
KMC5 241525Z 04002KT 23/09 A3006 RMK A01 T02330094  RH  041%=      5-min Rain = 0
KMC5 241526Z 05002KT 23/09 A3006 RMK A01 T02340089  RH  040%=      5-min Rain = 0
KMC5 241527Z 08002KT 23/08 A3006 RMK A01 T02340081  RH  038%=      5-min Rain = 0
KMC5 241528Z 09002KT 24/08 A3005 RMK A01 T02350084  RH  038%=      5-min Rain = 0
KMC5 241529Z 09002KT 24/08 A3005 RMK A01 T02350082  RH  038%=      5-min Rain = 0
KMC5 241530Z 06002KT 24/09 A3005 RMK A01 T02360093  RH  040%=      5-min Rain = 0
KMC5 241531Z 04003KT 24/08 A3005 RMK A01 T02370077  RH  036%=      5-min Rain = 0
KMC5 241532Z 03003KT 24/08 A3005 RMK A01 T02360081  RH  037%=      5-min Rain = 0
KMC5 241533Z 02002KT 24/08 A3005 RMK A01 T02350081  RH  037%=      5-min Rain = 0
KMC5 241534Z 03003KT 24/09 A3005 RMK A01 T02350085  RH  038%=      5-min Rain = 0
KMC5 241535Z 02003KT 24/09 A3005 RMK A01 T02350088  RH  039%=      5-min Rain = 0
KMC5 241536Z 02003KT 24/08 A3005 RMK A01 T02350082  RH  037%=      5-min Rain = 0
KMC5 241537Z 03003KT 24/08 A3005 RMK A01 T02360078  RH  037%=      5-min Rain = 0
KMC5 241538Z 04002KT 24/07 A3005 RMK A01 T02360070  RH  035%=      5-min Rain = 0
KMC5 241539Z 01002KT 24/08 A3005 RMK A01 T02350075  RH  036%=      5-min Rain = 0
KMC5 241540Z 02003KT 24/08 A3005 RMK A01 T02350080  RH  037%=      5-min Rain = 0
KMC5 241541Z 03003KT 24/09 A3005 RMK A01 T02360086  RH  038%=      5-min Rain = 0
KMC5 241542Z 02001KT 24/08 A3005 RMK A01 T02380075  RH  035%=      5-min Rain = 0
KMC5 241543Z 17000KT 24/06 A3005 RMK A01 T02380062  RH  032%=      5-min Rain = 0
KMC5 241544Z 34001KT 24/07 A3005 RMK A01 T02370066  RH  033%=      5-min Rain = 0
KMC5 241545Z 36002KT 24/08 A3005 RMK A01 T02380084  RH  038%=      5-min Rain = 0
KMC5 241546Z 35001KT 24/07 A3005 RMK A01 T02380071  RH  034%=      5-min Rain = 0
KMC5 241547Z 35001KT 24/07 A3005 RMK A01 T02380072  RH  034%=      5-min Rain = 0
KMC5 241548Z 30000KT 24/07 A3005 RMK A01 T02370069  RH  034%=      5-min Rain = 0
KMC5 241549Z 32002KT 24/07 A3005 RMK A01 T02380074  RH  035%=      5-min Rain = 0
KMC5 241550Z 32000KT 24/07 A3005 RMK A01 T02370074  RH  035%=      5-min Rain = 0
KMC5 241551Z 32001KT 24/08 A3005 RMK A01 T02380075  RH  035%=      5-min Rain = 0
KMC5 241552Z 02001KT 24/08 A3005 RMK A01 T02390078  RH  036%=      5-min Rain = 0
KMC5 241553Z 01001KT 24/08 A3005 RMK A01 T02400080  RH  036%=      5-min Rain = 0
KMC5 241554Z 32000KT 24/09 A3005 RMK A01 T02410093  RH  039%=      5-min Rain = 0
KMC5 241555Z 06001KT 24/09 A3005 RMK A01 T02430092  RH  038%=      5-min Rain = 0
KMC5 241556Z 07001KT 24/09 A3005 RMK A01 T02430094  RH  039%=      5-min Rain = 0
KMC5 241557Z 02001KT 24/09 A3005 RMK A01 T02440087  RH  037%=      5-min Rain = 0
KMC5 241558Z 34001KT 25/10 A3005 RMK A01 T02450099  RH  040%=      5-min Rain = 0
KMC5 241559Z 35002KT 25/10 A3005 RMK A01 T02460098  RH  039%=      5-min Rain = 0
KMC5 241600Z 01002KT 25/09 A3005 RMK A01 T02460092  RH  037%=      5-min Rain = 0
KMC5 241601Z 00002KT 25/09 A3005 RMK A01 T02450086  RH  036%=      5-min Rain = 0
KMC5 241602Z 35002KT 24/09 A3004 RMK A01 T02430087  RH  037%=      5-min Rain = 0
KMC5 241603Z 03003KT 24/10 A3004 RMK A01 T02420095  RH  039%=      5-min Rain = 0
KMC5 241604Z 04002KT 24/10 A3004 RMK A01 T02420095  RH  039%=      5-min Rain = 0
KMC5 241605Z 02001KT 24/10 A3005 RMK A01 T02410096  RH  040%=      5-min Rain = 0
KMC5 241606Z 02002KT 24/10 A3005 RMK A01 T02410096  RH  040%=      5-min Rain = 0
KMC5 241607Z 07004KT 24/10 A3005 RMK A01 T02420098  RH  040%=      5-min Rain = 0
KMC5 241608Z 09003KT 24/10 A3005 RMK A01 T02430104  RH  041%=      5-min Rain = 0
KMC5 241609Z 08001KT 24/10 A3005 RMK A01 T02430097  RH  039%=      5-min Rain = 0
KMC5 241610Z 09002KT 24/11 A3005 RMK A01 T02440105  RH  041%=      5-min Rain = 0
KMC5 241611Z 08004KT 25/11 A3005 RMK A01 T02460107  RH  042%=      5-min Rain = 0
KMC5 241612Z 11004KT 25/11 A3005 RMK A01 T02480106  RH  041%=      5-min Rain = 0
KMC5 241613Z 13004KT 25/09 A3005 RMK A01 T02480094  RH  037%=      5-min Rain = 0
KMC5 241614Z 14004KT 25/09 A3005 RMK A01 T02470091  RH  037%=      5-min Rain = 0
KMC5 241615Z 14002KT 25/09 A3005 RMK A01 T02450093  RH  038%=      5-min Rain = 0
KMC5 241616Z 10004KT 25/10 A3005 RMK A01 T02450102  RH  040%=      5-min Rain = 0
KMC5 241617Z 07004KT 25/09 A3005 RMK A01 T02460094  RH  038%=      5-min Rain = 0
KMC5 241618Z 06003KT 25/09 A3005 RMK A01 T02450092  RH  038%=      5-min Rain = 0
KMC5 241619Z 04003KT 24/09 A3005 RMK A01 T02440092  RH  038%=      5-min Rain = 0
KMC5 241620Z 07004KT 24/10 A3005 RMK A01 T02440096  RH  039%=      5-min Rain = 0
KMC5 241621Z 07003KT 24/10 A3005 RMK A01 T02440095  RH  039%=      5-min Rain = 0
KMC5 241622Z 07003KT 24/10 A3005 RMK A01 T02440095  RH  039%=      5-min Rain = 0
KMC5 241623Z 06002KT 24/10 A3005 RMK A01 T02440095  RH  039%=      5-min Rain = 0
KMC5 241624Z 08003KT 24/09 A3005 RMK A01 T02440094  RH  038%=      5-min Rain = 0
KMC5 241625Z 10005KT 25/11 A3005 RMK A01 T02460107  RH  042%=      5-min Rain = 0
KMC5 241626Z 10004KT 25/10 A3005 RMK A01 T02480102  RH  040%=      5-min Rain = 0
KMC5 241627Z 10003KT 25/11 A3005 RMK A01 T02480105  RH  040%=      5-min Rain = 0
KMC5 241628Z 14005KT 25/10 A3005 RMK A01 T02490100  RH  039%=      5-min Rain = 0
KMC5 241629Z 11005KT 25/09 A3005 RMK A01 T02480090  RH  037%=      5-min Rain = 0
KMC5 241630Z 12005KT 25/09 A3005 RMK A01 T02460089  RH  037%=      5-min Rain = 0
KMC5 241631Z 11006KT 24/09 A3005 RMK A01 T02440094  RH  039%=      5-min Rain = 0
KMC5 241632Z 14003KT 24/09 A3005 RMK A01 T02440087  RH  037%=      5-min Rain = 0
KMC5 241633Z 13006KT 24/09 A3005 RMK A01 T02430093  RH  039%=      5-min Rain = 0
KMC5 241634Z 11006KT 25/10 A3005 RMK A01 T02450102  RH  040%=      5-min Rain = 0
KMC5 241635Z 09005KT 25/10 A3005 RMK A01 T02480096  RH  038%=      5-min Rain = 0
KMC5 241636Z 11006KT 25/10 A3005 RMK A01 T02480104  RH  040%=      5-min Rain = 0
KMC5 241637Z 11006KT 25/09 A3005 RMK A01 T02500094  RH  037%=      5-min Rain = 0
KMC5 241638Z 12006KT 25/09 A3005 RMK A01 T02490091  RH  037%=      5-min Rain = 0
KMC5 241639Z 12005KT 25/09 A3005 RMK A01 T02480092  RH  037%=      5-min Rain = 0
KMC5 241640Z 15004KT 25/09 A3005 RMK A01 T02480086  RH  036%=      5-min Rain = 0
KMC5 241641Z 14005KT 25/09 A3005 RMK A01 T02470093  RH  038%=      5-min Rain = 0
KMC5 241642Z 14004KT 25/08 A3005 RMK A01 T02470083  RH  035%=      5-min Rain = 0
KMC5 241643Z 14004KT 25/08 A3005 RMK A01 T02460084  RH  035%=      5-min Rain = 0
KMC5 241644Z 13004KT 25/08 A3005 RMK A01 T02460079  RH  034%=      5-min Rain = 0
KMC5 241645Z 14004KT 25/08 A3005 RMK A01 T02460080  RH  035%=      5-min Rain = 0
KMC5 241646Z 13001KT 25/07 A3005 RMK A01 T02460074  RH  033%=      5-min Rain = 0
KMC5 241647Z 08001KT 25/07 A3005 RMK A01 T02470068  RH  032%=      5-min Rain = 0
KMC5 241648Z 05000KT 25/08 A3005 RMK A01 T02470079  RH  034%=      5-min Rain = 0
KMC5 241649Z 11003KT 25/09 A3005 RMK A01 T02490087  RH  036%=      5-min Rain = 0
KMC5 241650Z 12002KT 25/09 A3005 RMK A01 T02500090  RH  036%=      5-min Rain = 0
KMC5 241651Z 13002KT 25/09 A3005 RMK A01 T02510089  RH  036%=      5-min Rain = 0
KMC5 241652Z 13004KT 25/09 A3005 RMK A01 T02520093  RH  036%=      5-min Rain = 0
KMC5 241653Z 13003KT 25/10 A3005 RMK A01 T02530099  RH  038%=      5-min Rain = 0
KMC5 241654Z 14004KT 25/09 A3005 RMK A01 T02540094  RH  036%=      5-min Rain = 0
KMC5 241655Z 15002KT 25/08 A3005 RMK A01 T02530084  RH  034%=      5-min Rain = 0
KMC5 241656Z 13001KT 25/08 A3005 RMK A01 T02510081  RH  034%=      5-min Rain = 0
KMC5 241657Z 07002KT 25/09 A3005 RMK A01 T02500090  RH  036%=      5-min Rain = 0
KMC5 241658Z 14003KT 25/09 A3005 RMK A01 T02500094  RH  037%=      5-min Rain = 0
KMC5 241659Z 14003KT 25/09 A3005 RMK A01 T02520089  RH  036%=      5-min Rain = 0
KMC5 241700Z 14004KT 25/09 A3005 RMK A01 T02520089  RH  036%=      5-min Rain = 0
KMC5 241701Z 11004KT 25/10 A3005 RMK A01 T02510100  RH  038%=      5-min Rain = 0
KMC5 241702Z 09004KT 25/11 A3005 RMK A01 T02540107  RH  040%=      5-min Rain = 0
KMC5 241703Z 09004KT 26/10 A3005 RMK A01 T02550098  RH  037%=      5-min Rain = 0
KMC5 241704Z 07005KT 25/09 A3005 RMK A01 T02540094  RH  036%=      5-min Rain = 0
KMC5 241705Z 08005KT 25/09 A3005 RMK A01 T02520090  RH  036%=      5-min Rain = 0
KMC5 241706Z 09004KT 25/09 A3005 RMK A01 T02500093  RH  037%=      5-min Rain = 0
KMC5 241707Z 08003KT 25/09 A3005 RMK A01 T02500094  RH  037%=      5-min Rain = 0
KMC5 241708Z 04001KT 25/09 A3005 RMK A01 T02490087  RH  036%=      5-min Rain = 0
KMC5 241709Z 17000KT 25/11 A3005 RMK A01 T02490107  RH  041%=      5-min Rain = 0
KMC5 241710Z 18002KT 25/09 A3005 RMK A01 T02510093  RH  037%=      5-min Rain = 0
KMC5 241711Z 14004KT 25/10 A3005 RMK A01 T02510096  RH  037%=      5-min Rain = 0
KMC5 241712Z 15002KT 25/09 A3005 RMK A01 T02510087  RH  035%=      5-min Rain = 0
KMC5 241713Z 11001KT 25/10 A3005 RMK A01 T02510097  RH  038%=      5-min Rain = 0
KMC5 241714Z 17003KT 25/11 A3005 RMK A01 T02530112  RH  041%=      5-min Rain = 0
KMC5 241715Z 19006KT 25/10 A3005 RMK A01 T02540098  RH  037%=      5-min Rain = 0
KMC5 241716Z 21005KT 25/10 A3005 RMK A01 T02510097  RH  038%=      5-min Rain = 0
KMC5 241717Z 21003KT 25/09 A3005 RMK A01 T02490089  RH  036%=      5-min Rain = 0
KMC5 241718Z 19004KT 25/10 A3005 RMK A01 T02480099  RH  039%=      5-min Rain = 0
KMC5 241719Z 20002KT 25/10 A3005 RMK A01 T02480098  RH  039%=      5-min Rain = 0
KMC5 241720Z 22002KT 25/10 A3005 RMK A01 T02480101  RH  039%=      5-min Rain = 0
KMC5 241721Z 22002KT 25/11 A3005 RMK A01 T02490106  RH  041%=      5-min Rain = 0
KMC5 241722Z 22002KT 25/10 A3005 RMK A01 T02490104  RH  040%=      5-min Rain = 0
KMC5 241723Z 20002KT 25/11 A3004 RMK A01 T02500112  RH  042%=      5-min Rain = 0
KMC5 241724Z 16001KT 25/10 A3004 RMK A01 T02520101  RH  039%=      5-min Rain = 0
KMC5 241725Z 11004KT 25/11 A3004 RMK A01 T02530106  RH  040%=      5-min Rain = 0
KMC5 241726Z 10005KT 26/11 A3004 RMK A01 T02550107  RH  040%=      5-min Rain = 0
KMC5 241727Z 09004KT 26/11 A3004 RMK A01 T02550107  RH  039%=      5-min Rain = 0
KMC5 241728Z 10003KT 25/10 A3004 RMK A01 T02540100  RH  038%=      5-min Rain = 0
KMC5 241729Z 10006KT 26/12 A3004 RMK A01 T02550123  RH  044%=      5-min Rain = 0
KMC5 241730Z 08003KT 26/11 A3004 RMK A01 T02590105  RH  038%=      5-min Rain = 0
KMC5 241731Z 11005KT 26/11 A3004 RMK A01 T02570107  RH  039%=      5-min Rain = 0
KMC5 241732Z 11004KT 26/10 A3004 RMK A01 T02560102  RH  038%=      5-min Rain = 0
KMC5 241733Z 12003KT 25/10 A3004 RMK A01 T02540101  RH  038%=      5-min Rain = 0
KMC5 241734Z 13005KT 25/11 A3004 RMK A01 T02540113  RH  041%=      5-min Rain = 0
KMC5 241735Z 14003KT 26/10 A3004 RMK A01 T02560104  RH  038%=      5-min Rain = 0
KMC5 241736Z 16002KT 26/10 A3004 RMK A01 T02560102  RH  038%=      5-min Rain = 0
KMC5 241737Z 14002KT 26/12 A3004 RMK A01 T02560118  RH  042%=      5-min Rain = 0
KMC5 241738Z 12002KT 26/10 A3004 RMK A01 T02560103  RH  038%=      5-min Rain = 0
KMC5 241739Z 15005KT 26/11 A3004 RMK A01 T02550109  RH  040%=      5-min Rain = 0
KMC5 241740Z 14005KT 26/11 A3004 RMK A01 T02570108  RH  039%=      5-min Rain = 0
KMC5 241741Z 15001KT 26/10 A3004 RMK A01 T02560096  RH  036%=      5-min Rain = 0
KMC5 241742Z 09001KT 26/10 A3004 RMK A01 T02550096  RH  037%=      5-min Rain = 0
KMC5 241743Z 11002KT 26/11 A3004 RMK A01 T02550108  RH  040%=      5-min Rain = 0
KMC5 241744Z 16002KT 26/10 A3004 RMK A01 T02560103  RH  038%=      5-min Rain = 0
KMC5 241745Z 19000KT 26/10 A3004 RMK A01 T02560096  RH  036%=      5-min Rain = 0
KMC5 241746Z 13003KT 26/10 A3004 RMK A01 T02550104  RH  039%=      5-min Rain = 0
KMC5 241747Z 13004KT 26/11 A3004 RMK A01 T02550113  RH  041%=      5-min Rain = 0
KMC5 241748Z 14003KT 26/11 A3004 RMK A01 T02550107  RH  039%=      5-min Rain = 0
KMC5 241749Z 12002KT 26/11 A3004 RMK A01 T02560109  RH  040%=      5-min Rain = 0
KMC5 241750Z 12002KT 26/11 A3004 RMK A01 T02570106  RH  039%=      5-min Rain = 0
KMC5 241751Z 12005KT 26/13 A3004 RMK A01 T02590125  RH  043%=      5-min Rain = 0
KMC5 241752Z 10007KT 26/12 A3004 RMK A01 T02620117  RH  040%=      5-min Rain = 0
KMC5 241753Z 10007KT 26/11 A3004 RMK A01 T02610105  RH  038%=      5-min Rain = 0
KMC5 241754Z 09006KT 26/11 A3004 RMK A01 T02570109  RH  040%=      5-min Rain = 0
KMC5 241755Z 10006KT 26/12 A3004 RMK A01 T02570115  RH  041%=      5-min Rain = 0
KMC5 241756Z 13005KT 26/11 A3004 RMK A01 T02580108  RH  039%=      5-min Rain = 0
KMC5 241757Z 10005KT 26/11 A3004 RMK A01 T02570109  RH  039%=      5-min Rain = 0
KMC5 241758Z 10004KT 26/11 A3004 RMK A01 T02570108  RH  039%=      5-min Rain = 0
KMC5 241759Z 09004KT 26/11 A3004 RMK A01 T02570112  RH  040%=      5-min Rain = 0
KMC5 241800Z 09003KT 26/11 A3004 RMK A01 T02570109  RH  039%=      5-min Rain = 0
KMC5 241801Z 08003KT 26/11 A3004 RMK A01 T02570108  RH  039%=      5-min Rain = 0
KMC5 241802Z 04002KT 26/11 A3004 RMK A01 T02570109  RH  039%=      5-min Rain = 0
KMC5 241803Z 12003KT 26/12 A3004 RMK A01 T02570122  RH  043%=      5-min Rain = 0
KMC5 241804Z 14006KT 26/12 A3004 RMK A01 T02600119  RH  041%=      5-min Rain = 0
KMC5 241805Z 11007KT 26/13 A3004 RMK A01 T02630127  RH  043%=      5-min Rain = 0
KMC5 241806Z 14006KT 26/12 A3004 RMK A01 T02640119  RH  040%=      5-min Rain = 0
KMC5 241807Z 13008KT 26/12 A3004 RMK A01 T02640116  RH  040%=      5-min Rain = 0
KMC5 241808Z 14005KT 26/11 A3004 RMK A01 T02620112  RH  039%=      5-min Rain = 0
KMC5 241809Z 15004KT 26/11 A3004 RMK A01 T02610114  RH  040%=      5-min Rain = 0
KMC5 241810Z 14006KT 26/13 A3004 RMK A01 T02610126  RH  043%=      5-min Rain = 0
KMC5 241811Z 18006KT 26/12 A3003 RMK A01 T02640121  RH  041%=      5-min Rain = 0
KMC5 241812Z 20004KT 26/11 A3003 RMK A01 T02620109  RH  038%=      5-min Rain = 0
KMC5 241813Z 15006KT 26/12 A3003 RMK A01 T02600121  RH  042%=      5-min Rain = 0
KMC5 241814Z 13008KT 26/12 A3003 RMK A01 T02600118  RH  041%=      5-min Rain = 0
KMC5 241815Z 12005KT 26/11 A3004 RMK A01 T02610113  RH  040%=      5-min Rain = 0
KMC5 241816Z 13003KT 26/11 A3003 RMK A01 T02600109  RH  039%=      5-min Rain = 0
KMC5 241817Z 13006KT 26/12 A3003 RMK A01 T02600116  RH  041%=      5-min Rain = 0
KMC5 241818Z 14005KT 26/12 A3003 RMK A01 T02610119  RH  041%=      5-min Rain = 0
KMC5 241819Z 19004KT 26/12 A3003 RMK A01 T02620117  RH  040%=      5-min Rain = 0
KMC5 241820Z 17002KT 26/11 A3003 RMK A01 T02620111  RH  039%=      5-min Rain = 0
KMC5 241821Z 12002KT 26/11 A3003 RMK A01 T02610107  RH  038%=      5-min Rain = 0
KMC5 241822Z 13003KT 26/11 A3003 RMK A01 T02610111  RH  039%=      5-min Rain = 0
KMC5 241823Z 14006KT 26/12 A3003 RMK A01 T02610117  RH  041%=      5-min Rain = 0
KMC5 241824Z 15007KT 26/11 A3003 RMK A01 T02620109  RH  038%=      5-min Rain = 0
KMC5 241825Z 15006KT 26/11 A3003 RMK A01 T02620110  RH  039%=      5-min Rain = 0
KMC5 241826Z 17002KT 26/11 A3003 RMK A01 T02600105  RH  038%=      5-min Rain = 0
KMC5 241827Z 16001KT 26/11 A3003 RMK A01 T02590107  RH  038%=      5-min Rain = 0
KMC5 241828Z 17005KT 26/11 A3003 RMK A01 T02600112  RH  040%=      5-min Rain = 0
KMC5 241829Z 15005KT 26/11 A3003 RMK A01 T02610114  RH  040%=      5-min Rain = 0
KMC5 241830Z 17004KT 26/11 A3003 RMK A01 T02610110  RH  039%=      5-min Rain = 0
KMC5 241831Z 20002KT 26/11 A3003 RMK A01 T02610106  RH  038%=      5-min Rain = 0
KMC5 241832Z 22002KT 26/11 A3003 RMK A01 T02600108  RH  038%=      5-min Rain = 0
KMC5 241833Z 28001KT 26/10 A3003 RMK A01 T02600102  RH  037%=      5-min Rain = 0
KMC5 241834Z 29001KT 26/11 A3003 RMK A01 T02590107  RH  038%=      5-min Rain = 0
KMC5 241835Z 12003KT 26/12 A3003 RMK A01 T02590115  RH  040%=      5-min Rain = 0
KMC5 241836Z 10004KT 26/11 A3003 RMK A01 T02610114  RH  040%=      5-min Rain = 0
KMC5 241837Z 10004KT 26/11 A3002 RMK A01 T02620113  RH  039%=      5-min Rain = 0
KMC5 241838Z 10005KT 26/11 A3002 RMK A01 T02620114  RH  040%=      5-min Rain = 0
KMC5 241839Z 13005KT 26/12 A3003 RMK A01 T02620116  RH  040%=      5-min Rain = 0
KMC5 241840Z 14008KT 26/12 A3002 RMK A01 T02640122  RH  041%=      5-min Rain = 0
KMC5 241841Z 14007KT 27/12 A3002 RMK A01 T02650119  RH  040%=      5-min Rain = 0
KMC5 241842Z 14006KT 27/12 A3002 RMK A01 T02650115  RH  039%=      5-min Rain = 0
KMC5 241843Z 13005KT 26/12 A3002 RMK A01 T02640116  RH  040%=      5-min Rain = 0
KMC5 241844Z 12003KT 26/12 A3002 RMK A01 T02640120  RH  041%=      5-min Rain = 0
KMC5 241845Z 11006KT 27/12 A3002 RMK A01 T02650123  RH  041%=      5-min Rain = 0
KMC5 241846Z 11006KT 27/12 A3002 RMK A01 T02660120  RH  040%=      5-min Rain = 0
KMC5 241847Z 11003KT 27/12 A3002 RMK A01 T02660122  RH  041%=      5-min Rain = 0
KMC5 241848Z 12007KT 27/13 A3002 RMK A01 T02670127  RH  042%=      5-min Rain = 0
KMC5 241849Z 12005KT 27/12 A3002 RMK A01 T02680120  RH  040%=      5-min Rain = 0
KMC5 241850Z 11004KT 27/12 A3002 RMK A01 T02670119  RH  040%=      5-min Rain = 0
KMC5 241851Z 11006KT 27/11 A3002 RMK A01 T02660114  RH  039%=      5-min Rain = 0
KMC5 241852Z 12009KT 27/12 A3002 RMK A01 T02660122  RH  041%=      5-min Rain = 0
KMC5 241853Z 11008KT 27/12 A3002 RMK A01 T02660116  RH  039%=      5-min Rain = 0
KMC5 241854Z 12005KT 27/11 A3002 RMK A01 T02660113  RH  039%=      5-min Rain = 0
KMC5 241855Z 11004KT 27/12 A3002 RMK A01 T02650121  RH  041%=      5-min Rain = 0
KMC5 241856Z 11003KT 27/12 A3002 RMK A01 T02650121  RH  041%=      5-min Rain = 0
KMC5 241857Z 14006KT 27/13 A3002 RMK A01 T02660127  RH  042%=      5-min Rain = 0
KMC5 241858Z 13006KT 27/11 A3002 RMK A01 T02680112  RH  038%=      5-min Rain = 0
KMC5 241859Z 13004KT 27/10 A3002 RMK A01 T02650104  RH  036%=      5-min Rain = 0
KMC5 241900Z 15002KT 26/11 A3002 RMK A01 T02630109  RH  038%=      5-min Rain = 0
KMC5 241901Z 16002KT 26/12 A3002 RMK A01 T02630116  RH  040%=      5-min Rain = 0
KMC5 241902Z 17005KT 27/13 A3002 RMK A01 T02650125  RH  042%=      5-min Rain = 0
KMC5 241903Z 17006KT 27/12 A3002 RMK A01 T02670115  RH  039%=      5-min Rain = 0
KMC5 241904Z 18007KT 27/12 A3002 RMK A01 T02670117  RH  039%=      5-min Rain = 0
KMC5 241905Z 17007KT 27/12 A3002 RMK A01 T02660124  RH  041%=      5-min Rain = 0
KMC5 241906Z 16007KT 27/13 A3002 RMK A01 T02680128  RH  042%=      5-min Rain = 0
KMC5 241907Z 17009KT 27/12 A3002 RMK A01 T02690124  RH  041%=      5-min Rain = 0
KMC5 241908Z 17008KT 27/12 A3002 RMK A01 T02690119  RH  039%=      5-min Rain = 0
KMC5 241909Z 16007KT 27/12 A3002 RMK A01 T02680118  RH  039%=      5-min Rain = 0
KMC5 241910Z 15005KT 27/12 A3002 RMK A01 T02670119  RH  040%=      5-min Rain = 0
KMC5 241911Z 13004KT 27/12 A3002 RMK A01 T02670117  RH  039%=      5-min Rain = 0
KMC5 241912Z 14003KT 27/11 A3002 RMK A01 T02670110  RH  037%=      5-min Rain = 0
KMC5 241913Z 14003KT 27/13 A3002 RMK A01 T02660130  RH  043%=      5-min Rain = 0
KMC5 241914Z 11006KT 27/12 A3001 RMK A01 T02690117  RH  039%=      5-min Rain = 0
KMC5 241915Z 14004KT 27/12 A3001 RMK A01 T02680119  RH  040%=      5-min Rain = 0
KMC5 241916Z 18006KT 27/13 A3001 RMK A01 T02680127  RH  042%=      5-min Rain = 0
KMC5 241917Z 16008KT 27/12 A3001 RMK A01 T02690119  RH  039%=      5-min Rain = 0
KMC5 241918Z 17008KT 27/12 A3001 RMK A01 T02700120  RH  039%=      5-min Rain = 0
KMC5 241919Z 19010KT 27/12 A3001 RMK A01 T02700116  RH  038%=      5-min Rain = 0
KMC5 241920Z 18009KT 27/12 A3001 RMK A01 T02700115  RH  038%=      5-min Rain = 0
KMC5 241921Z 18006KT 27/11 A3001 RMK A01 T02690113  RH  038%=      5-min Rain = 0
KMC5 241922Z 21003KT 27/11 A3001 RMK A01 T02680105  RH  036%=      5-min Rain = 0
KMC5 241923Z 13004KT 27/12 A3001 RMK A01 T02660116  RH  039%=      5-min Rain = 0
KMC5 241924Z 14006G11KT 27/11 A3001 RMK A01 T02670113  RH  038%=      5-min Rain = 0
KMC5 241925Z 13008KT 27/12 A3001 RMK A01 T02680121  RH  040%=      5-min Rain = 0
KMC5 241926Z 12010KT 27/13 A3001 RMK A01 T02710133  RH  043%=      5-min Rain = 0
KMC5 241927Z 12009KT 27/12 A3001 RMK A01 T02740123  RH  039%=      5-min Rain = 0
KMC5 241928Z 11010KT 27/12 A3001 RMK A01 T02740123  RH  039%=      5-min Rain = 0
KMC5 241929Z 12008KT 27/12 A3001 RMK A01 T02730123  RH  039%=      5-min Rain = 0
KMC5 241930Z 13007KT 27/13 A3001 RMK A01 T02740126  RH  040%=      5-min Rain = 0
KMC5 241931Z 14008KT 27/13 A3001 RMK A01 T02740130  RH  041%=      5-min Rain = 0
KMC5 241932Z 18006KT 28/12 A3001 RMK A01 T02750116  RH  037%=      5-min Rain = 0
KMC5 241933Z 21007KT 27/12 A3001 RMK A01 T02730122  RH  039%=      5-min Rain = 0
KMC5 241934Z 20005KT 27/12 A3001 RMK A01 T02720118  RH  038%=      5-min Rain = 0
KMC5 241935Z 21004KT 27/12 A3001 RMK A01 T02710119  RH  039%=      5-min Rain = 0
KMC5 241936Z 19005KT 27/12 A3001 RMK A01 T02710115  RH  038%=      5-min Rain = 0
KMC5 241937Z 19004KT 27/11 A3001 RMK A01 T02700112  RH  037%=      5-min Rain = 0
KMC5 241938Z 16010KT 27/12 A3001 RMK A01 T02690124  RH  041%=      5-min Rain = 0
KMC5 241939Z 16011KT 27/13 A3001 RMK A01 T02720129  RH  041%=      5-min Rain = 0
KMC5 241940Z 18011KT 27/12 A3001 RMK A01 T02740122  RH  039%=      5-min Rain = 0
KMC5 241941Z 20007KT 27/12 A3001 RMK A01 T02730118  RH  038%=      5-min Rain = 0
KMC5 241942Z 19007KT 27/12 A3001 RMK A01 T02710117  RH  038%=      5-min Rain = 0
KMC5 241943Z 19009KT 27/12 A3001 RMK A01 T02710124  RH  040%=      5-min Rain = 0
KMC5 241944Z 17007KT 27/12 A3001 RMK A01 T02720122  RH  039%=      5-min Rain = 0
KMC5 241945Z 15010KT 27/13 A3001 RMK A01 T02730125  RH  040%=      5-min Rain = 0
KMC5 241946Z 15008KT 27/12 A3001 RMK A01 T02740121  RH  039%=      5-min Rain = 0
KMC5 241947Z 13008KT 27/13 A30 RMK A01 T02740128  RH  040%=      5-min Rain = 0
KMC5 241948Z 13006KT 28/12 A30 RMK A01 T02750118  RH  038%=      5-min Rain = 0
KMC5 241949Z 16006KT 27/13 A30 RMK A01 T02740126  RH  040%=      5-min Rain = 0
KMC5 241950Z 16004KT 28/12 A30 RMK A01 T02750123  RH  039%=      5-min Rain = 0
KMC5 241951Z 15004KT 28/13 A30 RMK A01 T02750132  RH  041%=      5-min Rain = 0
KMC5 241952Z 14004KT 28/12 A30 RMK A01 T02760120  RH  038%=      5-min Rain = 0
KMC5 241953Z 13005KT 28/13 A30 RMK A01 T02760129  RH  040%=      5-min Rain = 0
KMC5 241954Z 14004KT 28/13 A30 RMK A01 T02760127  RH  040%=      5-min Rain = 0
KMC5 241955Z 15005KT 28/13 A30 RMK A01 T02770131  RH  040%=      5-min Rain = 0
KMC5 241956Z 18006KT 28/13 A30 RMK A01 T02780125  RH  039%=      5-min Rain = 0
KMC5 241957Z 17006KT 28/13 A30 RMK A01 T02780125  RH  039%=      5-min Rain = 0
KMC5 241958Z 14007KT 28/13 A30 RMK A01 T02780130  RH  040%=      5-min Rain = 0
KMC5 241959Z 15005KT 28/14 A30 RMK A01 T02790135  RH  041%=      5-min Rain = 0
KMC5 242000Z 19004KT 28/13 A30 RMK A01 T02800133  RH  040%=      5-min Rain = 0
KMC5 242001Z 18008KT 28/13 A30 RMK A01 T02810129  RH  039%=      5-min Rain = 0
KMC5 242002Z 18010KT 28/14 A30 RMK A01 T02810137  RH  041%=      5-min Rain = 0
KMC5 242003Z 20008KT 28/13 A30 RMK A01 T02810128  RH  039%=      5-min Rain = 0
KMC5 242004Z 17011KT 28/12 A30 RMK A01 T02800124  RH  038%=      5-min Rain = 0
KMC5 242005Z 18011KT 28/12 A30 RMK A01 T02780124  RH  038%=      5-min Rain = 0
KMC5 242006Z 21007KT 28/12 A30 RMK A01 T02770119  RH  037%=      5-min Rain = 0
KMC5 242007Z 21007KT 28/12 A30 RMK A01 T02760118  RH  037%=      5-min Rain = 0
KMC5 242008Z 19007KT 28/12 A30 RMK A01 T02750115  RH  037%=      5-min Rain = 0
KMC5 242009Z 19007KT 27/12 A30 RMK A01 T02740117  RH  038%=      5-min Rain = 0
KMC5 242010Z 20006KT 27/12 A30 RMK A01 T02740123  RH  039%=      5-min Rain = 0
KMC5 242011Z 20006KT 28/12 A30 RMK A01 T02760120  RH  038%=      5-min Rain = 0
KMC5 242012Z 18005KT 28/13 A30 RMK A01 T02770126  RH  039%=      5-min Rain = 0
KMC5 242013Z 16009KT 28/14 A2999 RMK A01 T02790135  RH  041%=      5-min Rain = 0
KMC5 242014Z 16008KT 28/14 A2999 RMK A01 T02810137  RH  041%=      5-min Rain = 0
KMC5 242015Z 14013KT 28/13 A2999 RMK A01 T02830129  RH  039%=      5-min Rain = 0
KMC5 242016Z 14011KT 28/12 A2999 RMK A01 T02820121  RH  037%=      5-min Rain = 0
KMC5 242017Z 14008KT 28/12 A2999 RMK A01 T02800124  RH  038%=      5-min Rain = 0
KMC5 242018Z 15010KT 28/13 A2999 RMK A01 T02800131  RH  040%=      5-min Rain = 0
KMC5 242019Z 15009KT 28/13 A2999 RMK A01 T02810125  RH  038%=      5-min Rain = 0
KMC5 242020Z 15010KT 28/13 A2999 RMK A01 T02810130  RH  039%=      5-min Rain = 0
KMC5 242021Z 16011KT 28/12 A2999 RMK A01 T02810122  RH  037%=      5-min Rain = 0
KMC5 242022Z 17008KT 28/12 A2999 RMK A01 T02800117  RH  036%=      5-min Rain = 0
KMC5 242023Z 19008KT 28/12 A2999 RMK A01 T02780118  RH  037%=      5-min Rain = 0
KMC5 242024Z 20010KT 28/12 A2999 RMK A01 T02780118  RH  037%=      5-min Rain = 0
KMC5 242025Z 19009KT 28/11 A2999 RMK A01 T02770114  RH  036%=      5-min Rain = 0
KMC5 242026Z 20008KT 28/12 A2999 RMK A01 T02770123  RH  038%=      5-min Rain = 0
KMC5 242027Z 20009KT 28/13 A2999 RMK A01 T02780131  RH  040%=      5-min Rain = 0
KMC5 242028Z 19007G12KT 28/11 A2999 RMK A01 T02800114  RH  036%=      5-min Rain = 0
KMC5 242029Z 15007G12KT 28/13 A2999 RMK A01 T02790125  RH  039%=      5-min Rain = 0
KMC5 242030Z 17005KT 28/12 A2999 RMK A01 T02800116  RH  036%=      5-min Rain = 0
KMC5 242031Z 15010KT 28/12 A2999 RMK A01 T02800121  RH  037%=      5-min Rain = 0
KMC5 242032Z 13013KT 28/12 A2999 RMK A01 T02800119  RH  037%=      5-min Rain = 0
KMC5 242033Z 13010KT 28/12 A2999 RMK A01 T02800115  RH  036%=      5-min Rain = 0
KMC5 242034Z 13007KT 28/11 A2999 RMK A01 T02790112  RH  035%=      5-min Rain = 0
KMC5 242035Z 13007KT 28/12 A2999 RMK A01 T02780119  RH  037%=      5-min Rain = 0
KMC5 242036Z 12007KT 28/12 A2999 RMK A01 T02790122  RH  038%=      5-min Rain = 0
KMC5 242037Z 14007KT 28/12 A2999 RMK A01 T02800118  RH  036%=      5-min Rain = 0
KMC5 242038Z 14007KT 28/13 A2999 RMK A01 T02800126  RH  039%=      5-min Rain = 0
KMC5 242039Z 17009KT 28/13 A2999 RMK A01 T02810125  RH  038%=      5-min Rain = 0
KMC5 242040Z 18012KT 28/12 A2998 RMK A01 T02810119  RH  037%=      5-min Rain = 0
KMC5 242041Z 19012KT 28/12 A2999 RMK A01 T02810119  RH  037%=      5-min Rain = 0
KMC5 242042Z 18009KT 28/12 A2999 RMK A01 T02810124  RH  038%=      5-min Rain = 0
KMC5 242043Z 18011KT 28/13 A2999 RMK A01 T02820127  RH  039%=      5-min Rain = 0
KMC5 242044Z 19010KT 28/12 A2999 RMK A01 T02830117  RH  036%=      5-min Rain = 0
KMC5 242045Z 20008KT 28/11 A2999 RMK A01 T02810114  RH  036%=      5-min Rain = 0
KMC5 242046Z 18007KT 28/12 A2999 RMK A01 T02800122  RH  038%=      5-min Rain = 0
KMC5 242047Z 18006KT 28/13 A2999 RMK A01 T02820132  RH  040%=      5-min Rain = 0
KMC5 242048Z 18008KT 28/12 A2998 RMK A01 T02840119  RH  036%=      5-min Rain = 0
KMC5 242049Z 17006KT 28/11 A2998 RMK A01 T02830111  RH  034%=      5-min Rain = 0
KMC5 242050Z 18005KT 28/12 A2998 RMK A01 T02820122  RH  037%=      5-min Rain = 0
KMC5 242051Z 18005KT 28/11 A2998 RMK A01 T02830105  RH  033%=      5-min Rain = 0
KMC5 242052Z 19004KT 28/11 A2998 RMK A01 T02820113  RH  035%=      5-min Rain = 0
KMC5 242053Z 21007KT 28/12 A2998 RMK A01 T02820120  RH  037%=      5-min Rain = 0
KMC5 242054Z 21006KT 28/11 A2998 RMK A01 T02840113  RH  035%=      5-min Rain = 0
KMC5 242055Z 22004KT 28/11 A2998 RMK A01 T02840105  RH  033%=      5-min Rain = 0
KMC5 242056Z 20003KT 28/10 A2998 RMK A01 T02830101  RH  032%=      5-min Rain = 0
KMC5 242057Z 20005KT 28/11 A2998 RMK A01 T02830108  RH  034%=      5-min Rain = 0
KMC5 242058Z 19004KT 28/11 A2998 RMK A01 T02820106  RH  033%=      5-min Rain = 0
KMC5 242059Z 14008KT 28/12 A2998 RMK A01 T02820117  RH  036%=      5-min Rain = 0
KMC5 242100Z 14006KT 28/11 A2998 RMK A01 T02830109  RH  034%=      5-min Rain = 0
KMC5 242101Z 13006KT 28/12 A2998 RMK A01 T02830116  RH  036%=      5-min Rain = 0
KMC5 242102Z 13007KT 28/11 A2998 RMK A01 T02830112  RH  035%=      5-min Rain = 0
KMC5 242103Z 12007KT 28/12 A2998 RMK A01 T02820121  RH  037%=      5-min Rain = 0
KMC5 242104Z 11008KT 28/12 A2998 RMK A01 T02840120  RH  036%=      5-min Rain = 0
KMC5 242105Z 12007KT 28/12 A2998 RMK A01 T02840118  RH  036%=      5-min Rain = 0
KMC5 242106Z 13006KT 28/12 A2998 RMK A01 T02840117  RH  036%=      5-min Rain = 0
KMC5 242107Z 13009KT 28/12 A2998 RMK A01 T02840123  RH  037%=      5-min Rain = 0
KMC5 242108Z 13007KT 28/12 A2998 RMK A01 T02840119  RH  036%=      5-min Rain = 0
KMC5 242109Z 16006KT 29/13 A2998 RMK A01 T02850130  RH  038%=      5-min Rain = 0
KMC5 242110Z 19011KT 29/12 A2998 RMK A01 T02860118  RH  035%=      5-min Rain = 0
KMC5 242111Z 19011KT 29/12 A2998 RMK A01 T02860118  RH  035%=      5-min Rain = 0
KMC5 242112Z 20011KT 29/11 A2998 RMK A01 T02860112  RH  034%=      5-min Rain = 0
KMC5 242113Z 18010KT 29/12 A2998 RMK A01 T02850117  RH  035%=      5-min Rain = 0
KMC5 242114Z 15010KT 29/12 A2998 RMK A01 T02850122  RH  036%=      5-min Rain = 0
KMC5 242115Z 14009KT 29/11 A2998 RMK A01 T02860114  RH  035%=      5-min Rain = 0
KMC5 242116Z 15010KT 29/12 A2998 RMK A01 T02850120  RH  036%=      5-min Rain = 0
KMC5 242117Z 15008KT 29/13 A2998 RMK A01 T02850125  RH  037%=      5-min Rain = 0
KMC5 242118Z 13007KT 29/12 A2998 RMK A01 T02860117  RH  035%=      5-min Rain = 0
KMC5 242119Z 11009KT 29/12 A2998 RMK A01 T02860117  RH  035%=      5-min Rain = 0
KMC5 242120Z 13008KT 29/11 A2998 RMK A01 T02850113  RH  034%=      5-min Rain = 0
KMC5 242121Z 14006KT 28/12 A2998 RMK A01 T02840119  RH  036%=      5-min Rain = 0
KMC5 242122Z 12009KT 29/12 A2998 RMK A01 T02850121  RH  036%=      5-min Rain = 0
KMC5 242123Z 13007KT 29/11 A2998 RMK A01 T02850110  RH  034%=      5-min Rain = 0
KMC5 242124Z 12011KT 28/12 A2997 RMK A01 T02840120  RH  036%=      5-min Rain = 0
KMC5 242125Z 13010KT 29/12 A2997 RMK A01 T02850118  RH  036%=      5-min Rain = 0
KMC5 242126Z 16008KT 29/13 A2997 RMK A01 T02860126  RH  037%=      5-min Rain = 0
KMC5 242127Z 14009KT 29/12 A2997 RMK A01 T02870118  RH  035%=      5-min Rain = 0
KMC5 242128Z 15010KT 29/11 A2997 RMK A01 T02870111  RH  034%=      5-min Rain = 0
KMC5 242129Z 16009KT 29/11 A2997 RMK A01 T02870114  RH  034%=      5-min Rain = 0
KMC5 242130Z 15011KT 29/13 A2997 RMK A01 T02860130  RH  038%=      5-min Rain = 0
KMC5 242131Z 13011KT 29/12 A2997 RMK A01 T02880124  RH  036%=      5-min Rain = 0
KMC5 242132Z 15009KT 29/12 A2997 RMK A01 T02890120  RH  035%=      5-min Rain = 0
KMC5 242133Z 17010KT 29/12 A2997 RMK A01 T02890115  RH  034%=      5-min Rain = 0
KMC5 242134Z 17008KT 29/11 A2998 RMK A01 T02870111  RH  034%=      5-min Rain = 0
KMC5 242135Z 18007KT 29/11 A2997 RMK A01 T02870114  RH  034%=      5-min Rain = 0
KMC5 242136Z 17007KT 29/11 A2997 RMK A01 T02860107  RH  033%=      5-min Rain = 0
KMC5 242137Z 15009KT 29/12 A2997 RMK A01 T02870124  RH  037%=      5-min Rain = 0
KMC5 242138Z 16013KT 29/12 A2997 RMK A01 T02880120  RH  036%=      5-min Rain = 0
KMC5 242139Z 16012KT 29/11 A2997 RMK A01 T02880114  RH  034%=      5-min Rain = 0
KMC5 242140Z 16012KT 29/11 A2997 RMK A01 T02880113  RH  034%=      5-min Rain = 0
KMC5 242141Z 16010KT 29/11 A2997 RMK A01 T02870111  RH  034%=      5-min Rain = 0
KMC5 242142Z 16006G11KT 29/10 A2997 RMK A01 T02850097  RH  031%=      5-min Rain = 0
KMC5 242143Z 14003KT 28/10 A2997 RMK A01 T02840102  RH  032%=      5-min Rain = 0
KMC5 242144Z 15005KT 28/11 A2997 RMK A01 T02840114  RH  035%=      5-min Rain = 0
KMC5 242145Z 15006KT 29/11 A2997 RMK A01 T02860113  RH  034%=      5-min Rain = 0
KMC5 242146Z 15007KT 29/11 A2997 RMK A01 T02860110  RH  033%=      5-min Rain = 0
KMC5 242147Z 13010KT 29/12 A2997 RMK A01 T02870117  RH  035%=      5-min Rain = 0
KMC5 242148Z 12007KT 29/11 A2997 RMK A01 T02870110  RH  033%=      5-min Rain = 0
KMC5 242149Z 13009KT 29/11 A2997 RMK A01 T02870109  RH  033%=      5-min Rain = 0
KMC5 242150Z 13011KT 29/11 A2997 RMK A01 T02860112  RH  034%=      5-min Rain = 0
KMC5 242151Z 13010KT 29/11 A2997 RMK A01 T02860110  RH  033%=      5-min Rain = 0
KMC5 242152Z 14011KT 29/11 A2997 RMK A01 T02860106  RH  033%=      5-min Rain = 0
KMC5 242153Z 14007KT 29/10 A2997 RMK A01 T02850104  RH  032%=      5-min Rain = 0
KMC5 242154Z 13009KT 28/12 A2997 RMK A01 T02840120  RH  036%=      5-min Rain = 0
KMC5 242155Z 14014KT 29/12 A2997 RMK A01 T02860117  RH  035%=      5-min Rain = 0
KMC5 242156Z 15012KT 29/11 A2997 RMK A01 T02870106  RH  032%=      5-min Rain = 0
KMC5 242157Z 15011KT 29/11 A2997 RMK A01 T02860107  RH  033%=      5-min Rain = 0
KMC5 242158Z 17010KT 29/11 A2997 RMK A01 T02850107  RH  033%=      5-min Rain = 0
KMC5 242159Z 18009KT 29/11 A2997 RMK A01 T02850112  RH  034%=      5-min Rain = 0
KMC5 242200Z 19007KT 29/11 A2997 RMK A01 T02850108  RH  033%=      5-min Rain = 0
KMC5 242201Z 19008KT 29/11 A2997 RMK A01 T02850110  RH  034%=      5-min Rain = 0
KMC5 242202Z 16007KT 29/12 A2997 RMK A01 T02860121  RH  036%=      5-min Rain = 0
KMC5 242203Z 13007KT 29/12 A2997 RMK A01 T02880118  RH  035%=      5-min Rain = 0
KMC5 242204Z 14008KT 29/11 A2997 RMK A01 T02880107  RH  032%=      5-min Rain = 0
KMC5 242205Z 16008KT 29/12 A2997 RMK A01 T02880120  RH  035%=      5-min Rain = 0
KMC5 242206Z 18008KT 29/13 A2997 RMK A01 T02890127  RH  037%=      5-min Rain = 0
KMC5 242207Z 18010KT 29/11 A2997 RMK A01 T02900111  RH  033%=      5-min Rain = 0
KMC5 242208Z 18007KT 29/11 A2997 RMK A01 T02890106  RH  032%=      5-min Rain = 0
KMC5 242209Z 18006KT 29/10 A2997 RMK A01 T02880101  RH  031%=      5-min Rain = 0
KMC5 242210Z 17005KT 29/10 A2997 RMK A01 T02870103  RH  032%=      5-min Rain = 0
KMC5 242211Z 17007KT 29/10 A2997 RMK A01 T02860104  RH  032%=      5-min Rain = 0
KMC5 242212Z 13009KT 29/11 A2997 RMK A01 T02860114  RH  034%=      5-min Rain = 0
KMC5 242213Z 14010KT 29/11 A2997 RMK A01 T02870113  RH  034%=      5-min Rain = 0
KMC5 242214Z 17010KT 29/13 A2997 RMK A01 T02880125  RH  037%=      5-min Rain = 0
KMC5 242215Z 18010KT 29/11 A2997 RMK A01 T02890109  RH  033%=      5-min Rain = 0
KMC5 242216Z 19009KT 29/11 A2997 RMK A01 T02880110  RH  033%=      5-min Rain = 0
KMC5 242217Z 17010KT 29/11 A2997 RMK A01 T02880106  RH  032%=      5-min Rain = 0
KMC5 242218Z 17009KT 29/10 A2997 RMK A01 T02870101  RH  031%=      5-min Rain = 0
KMC5 242219Z 17012KT 29/11 A2996 RMK A01 T02860107  RH  033%=      5-min Rain = 0
KMC5 242220Z 18013KT 29/11 A2997 RMK A01 T02860105  RH  032%=      5-min Rain = 0
KMC5 242221Z 18010KT 29/10 A2997 RMK A01 T02850102  RH  032%=      5-min Rain = 0
KMC5 242222Z 19008KT 29/10 A2997 RMK A01 T02850100  RH  032%=      5-min Rain = 0
KMC5 242223Z 18008KT 29/10 A2997 RMK A01 T02850103  RH  032%=      5-min Rain = 0
KMC5 242224Z 18009KT 29/10 A2997 RMK A01 T02850100  RH  032%=      5-min Rain = 0
KMC5 242225Z 17009KT 29/10 A2997 RMK A01 T02850104  RH  033%=      5-min Rain = 0
KMC5 242226Z 16011KT 29/11 A2997 RMK A01 T02850106  RH  033%=      5-min Rain = 0
KMC5 242227Z 16008KT 29/10 A2996 RMK A01 T02850099  RH  031%=      5-min Rain = 0
KMC5 242228Z 19008KT 29/10 A2996 RMK A01 T02850098  RH  031%=      5-min Rain = 0
KMC5 242229Z 18009KT 28/11 A2996 RMK A01 T02840111  RH  034%=      5-min Rain = 0
KMC5 242230Z 17011KT 29/11 A2996 RMK A01 T02860109  RH  033%=      5-min Rain = 0
KMC5 242231Z 16011KT 29/10 A2996 RMK A01 T02870100  RH  031%=      5-min Rain = 0
KMC5 242232Z 16010KT 29/10 A2996 RMK A01 T02860100  RH  031%=      5-min Rain = 0
KMC5 242233Z 15008KT 29/10 A2996 RMK A01 T02850104  RH  033%=      5-min Rain = 0
KMC5 242234Z 14009KT 29/10 A2996 RMK A01 T02850103  RH  032%=      5-min Rain = 0
KMC5 242235Z 13007KT 29/10 A2996 RMK A01 T02850100  RH  031%=      5-min Rain = 0
KMC5 242236Z 14007KT 29/12 A2996 RMK A01 T02850115  RH  035%=      5-min Rain = 0
KMC5 242237Z 14008KT 29/11 A2996 RMK A01 T02870106  RH  033%=      5-min Rain = 0
KMC5 242238Z 13009KT 29/11 A2996 RMK A01 T02870107  RH  033%=      5-min Rain = 0
KMC5 242239Z 17012KT 29/11 A2996 RMK A01 T02870110  RH  033%=      5-min Rain = 0
KMC5 242240Z 16012KT 29/12 A2996 RMK A01 T02870116  RH  035%=      5-min Rain = 0
KMC5 242241Z 16011KT 29/10 A2996 RMK A01 T02870103  RH  032%=      5-min Rain = 0
KMC5 242242Z 18011KT 29/11 A2996 RMK A01 T02870107  RH  033%=      5-min Rain = 0
KMC5 242243Z 19010KT 29/10 A2996 RMK A01 T02860102  RH  032%=      5-min Rain = 0
KMC5 242244Z 20007KT 29/11 A2996 RMK A01 T02860105  RH  032%=      5-min Rain = 0
KMC5 242245Z 18005KT 29/11 A2996 RMK A01 T02860105  RH  033%=      5-min Rain = 0
KMC5 242246Z 15007KT 29/11 A2996 RMK A01 T02860106  RH  033%=      5-min Rain = 0
KMC5 242247Z 16009KT 29/11 A2996 RMK A01 T02870111  RH  033%=      5-min Rain = 0
KMC5 242248Z 15009KT 29/10 A2996 RMK A01 T02870102  RH  032%=      5-min Rain = 0
KMC5 242249Z 14010KT 29/11 A2996 RMK A01 T02870108  RH  033%=      5-min Rain = 0
KMC5 242250Z 14008KT 29/11 A2996 RMK A01 T02860107  RH  033%=      5-min Rain = 0
KMC5 242251Z 16008KT 29/10 A2996 RMK A01 T02860104  RH  032%=      5-min Rain = 0
KMC5 242252Z 15010KT 29/10 A2996 RMK A01 T02860104  RH  032%=      5-min Rain = 0
KMC5 242253Z 15010KT 29/10 A2995 RMK A01 T02860103  RH  032%=      5-min Rain = 0
KMC5 242254Z 15011KT 29/10 A2995 RMK A01 T02850097  RH  031%=      5-min Rain = 0
KMC5 242255Z 16010KT 29/10 A2995 RMK A01 T02850099  RH  031%=      5-min Rain = 0
KMC5 242256Z 15010KT 29/11 A2995 RMK A01 T02850106  RH  033%=      5-min Rain = 0
KMC5 242257Z 17011KT 29/10 A2995 RMK A01 T02850101  RH  032%=      5-min Rain = 0
KMC5 242258Z 16010KT 29/10 A2995 RMK A01 T02850102  RH  032%=      5-min Rain = 0
KMC5 242259Z 16008KT 29/10 A2995 RMK A01 T02850100  RH  032%=      5-min Rain = 0
KMC5 242300Z 16007KT 29/10 A2995 RMK A01 T02850095  RH  030%=      5-min Rain = 0
KMC5 242301Z 14006KT 29/10 A2995 RMK A01 T02850101  RH  032%=      5-min Rain = 0
KMC5 242302Z 13008KT 29/11 A2995 RMK A01 T02850112  RH  034%=      5-min Rain = 0
KMC5 242303Z 14008KT 29/12 A2995 RMK A01 T02860116  RH  035%=      5-min Rain = 0
KMC5 242304Z 15010KT 29/11 A2995 RMK A01 T02870110  RH  033%=      5-min Rain = 0
KMC5 242305Z 13010KT 29/11 A2995 RMK A01 T02870108  RH  033%=      5-min Rain = 0
KMC5 242306Z 14008KT 29/11 A2995 RMK A01 T02860105  RH  032%=      5-min Rain = 0
KMC5 242307Z 13010KT 29/11 A2995 RMK A01 T02860105  RH  032%=      5-min Rain = 0
KMC5 242308Z 12011KT 29/11 A2995 RMK A01 T02850105  RH  033%=      5-min Rain = 0
KMC5 242309Z 13011KT 29/11 A2995 RMK A01 T02850105  RH  033%=      5-min Rain = 0
KMC5 242310Z 12010KT 29/11 A2995 RMK A01 T02850113  RH  035%=      5-min Rain = 0
KMC5 242311Z 12011KT 29/11 A2995 RMK A01 T02850111  RH  034%=      5-min Rain = 0
KMC5 242312Z 12009KT 29/11 A2995 RMK A01 T02850112  RH  034%=      5-min Rain = 0
KMC5 242313Z 13009KT 29/11 A2995 RMK A01 T02850112  RH  034%=      5-min Rain = 0
KMC5 242314Z 14007KT 29/11 A2994 RMK A01 T02860106  RH  033%=      5-min Rain = 0
KMC5 242315Z 13007KT 29/11 A2994 RMK A01 T02860109  RH  033%=      5-min Rain = 0
KMC5 242316Z 12008KT 29/10 A2994 RMK A01 T02860102  RH  032%=      5-min Rain = 0
KMC5 242317Z 13008KT 29/11 A2994 RMK A01 T02850107  RH  033%=      5-min Rain = 0
KMC5 242318Z 14008KT 29/11 A2994 RMK A01 T02850111  RH  034%=      5-min Rain = 0
KMC5 242319Z 13010KT 29/10 A2994 RMK A01 T02860104  RH  032%=      5-min Rain = 0
KMC5 242320Z 13012KT 29/11 A2994 RMK A01 T02850107  RH  033%=      5-min Rain = 0
KMC5 242321Z 14010KT 29/10 A2994 RMK A01 T02850101  RH  032%=      5-min Rain = 0
KMC5 242322Z 14010KT 28/10 A2994 RMK A01 T02840104  RH  033%=      5-min Rain = 0
KMC5 242323Z 14009KT 28/11 A2994 RMK A01 T02840107  RH  033%=      5-min Rain = 0
KMC5 242324Z 15010KT 28/11 A2994 RMK A01 T02840111  RH  034%=      5-min Rain = 0
KMC5 242325Z 14009KT 28/11 A2994 RMK A01 T02840112  RH  034%=      5-min Rain = 0
KMC5 242326Z 15009KT 29/11 A2994 RMK A01 T02850108  RH  033%=      5-min Rain = 0
KMC5 242327Z 13007KT 29/10 A2994 RMK A01 T02850103  RH  032%=      5-min Rain = 0
KMC5 242328Z 13007KT 29/10 A2994 RMK A01 T02850104  RH  033%=      5-min Rain = 0
KMC5 242329Z 13007KT 29/11 A2994 RMK A01 T02850108  RH  033%=      5-min Rain = 0
KMC5 242330Z 13007KT 29/11 A2994 RMK A01 T02850106  RH  033%=      5-min Rain = 0
KMC5 242331Z 13009KT 28/11 A2994 RMK A01 T02840106  RH  033%=      5-min Rain = 0
KMC5 242332Z 12009KT 28/11 A2994 RMK A01 T02840111  RH  034%=      5-min Rain = 0
KMC5 242333Z 12008KT 28/10 A2994 RMK A01 T02840104  RH  033%=      5-min Rain = 0
KMC5 242334Z 14007KT 28/12 A2994 RMK A01 T02840120  RH  036%=      5-min Rain = 0
KMC5 242335Z 13008KT 29/11 A2994 RMK A01 T02850112  RH  034%=      5-min Rain = 0
KMC5 242336Z 13010KT 29/11 A2994 RMK A01 T02850105  RH  033%=      5-min Rain = 0
KMC5 242337Z 14009KT 28/10 A2994 RMK A01 T02830103  RH  033%=      5-min Rain = 0
KMC5 242338Z 14007KT 28/10 A2994 RMK A01 T02830101  RH  032%=      5-min Rain = 0
KMC5 242339Z 14007KT 28/10 A2994 RMK A01 T02830102  RH  032%=      5-min Rain = 0
KMC5 242340Z 14006KT 28/11 A2994 RMK A01 T02830109  RH  034%=      5-min Rain = 0
KMC5 242341Z 14006KT 28/11 A2994 RMK A01 T02830105  RH  033%=      5-min Rain = 0
KMC5 242342Z 14005KT 28/11 A2994 RMK A01 T02830113  RH  035%=      5-min Rain = 0
KMC5 242343Z 13006KT 28/12 A2994 RMK A01 T02840119  RH  036%=      5-min Rain = 0
KMC5 242344Z 13007KT 28/12 A2994 RMK A01 T02840119  RH  036%=      5-min Rain = 0
KMC5 242345Z 13009KT 29/11 A2994 RMK A01 T02850108  RH  033%=      5-min Rain = 0
KMC5 242346Z 14011KT 28/11 A2994 RMK A01 T02840106  RH  033%=      5-min Rain = 0
KMC5 242347Z 14009KT 28/10 A2994 RMK A01 T02830102  RH  032%=      5-min Rain = 0
KMC5 242348Z 15009KT 28/10 A2994 RMK A01 T02820103  RH  033%=      5-min Rain = 0
KMC5 242349Z 15010KT 28/11 A2994 RMK A01 T02820109  RH  034%=      5-min Rain = 0
KMC5 242350Z 14009KT 28/11 A2994 RMK A01 T02820113  RH  035%=      5-min Rain = 0
KMC5 242351Z 13008KT 28/11 A2994 RMK A01 T02820107  RH  034%=      5-min Rain = 0
KMC5 242352Z 13008KT 28/11 A2994 RMK A01 T02820113  RH  035%=      5-min Rain = 0
KMC5 242353Z 12008KT 28/11 A2994 RMK A01 T02820113  RH  035%=      5-min Rain = 0
KMC5 242354Z 13009KT 28/11 A2994 RMK A01 T02820109  RH  034%=      5-min Rain = 0
KMC5 242355Z 14007KT 28/11 A2994 RMK A01 T02810108  RH  034%=      5-min Rain = 0
KMC5 242356Z 13007KT 28/11 A2994 RMK A01 T02810112  RH  035%=      5-min Rain = 0
KMC5 242357Z 14009KT 28/11 A2994 RMK A01 T02810113  RH  035%=      5-min Rain = 0
KMC5 242358Z 14008KT 28/11 A2994 RMK A01 T02810109  RH  034%=      5-min Rain = 0
KMC5 242359Z 14008KT 28/11 A2994 RMK A01 T02810112  RH  035%=      5-min Rain = 0
KMC5 250000Z 13006KT 28/12 A2994 RMK A01 T02810119  RH  037%=      5-min Rain = 0
KMC5 250001Z 13007KT 28/12 A2994 RMK A01 T02810124  RH  038%=      5-min Rain = 0
KMC5 250002Z 13007KT 28/12 A2994 RMK A01 T02810117  RH  036%=      5-min Rain = 0
KMC5 250003Z 13007KT 28/12 A2994 RMK A01 T02810117  RH  036%=      5-min Rain = 0
KMC5 250004Z 13007KT 28/11 A2994 RMK A01 T02810109  RH  034%=      5-min Rain = 0
KMC5 250005Z 14006KT 28/11 A2994 RMK A01 T02810114  RH  035%=      5-min Rain = 0
KMC5 250006Z 14007KT 28/12 A2994 RMK A01 T02800121  RH  037%=      5-min Rain = 0
KMC5 250007Z 13008KT 28/12 A2994 RMK A01 T02800118  RH  037%=      5-min Rain = 0
KMC5 250008Z 12009KT 28/12 A2994 RMK A01 T02800120  RH  037%=      5-min Rain = 0
KMC5 250009Z 14009KT 28/12 A2994 RMK A01 T02800123  RH  038%=      5-min Rain = 0
KMC5 250010Z 15010KT 28/12 A2994 RMK A01 T02790122  RH  038%=      5-min Rain = 0
KMC5 250011Z 14011KT 28/11 A2994 RMK A01 T02790113  RH  036%=      5-min Rain = 0
KMC5 250012Z 13010KT 28/11 A2994 RMK A01 T02780113  RH  036%=      5-min Rain = 0
KMC5 250013Z 14009KT 28/12 A2994 RMK A01 T02780116  RH  036%=      5-min Rain = 0
KMC5 250014Z 14011KT 28/11 A2994 RMK A01 T02780113  RH  036%=      5-min Rain = 0
KMC5 250015Z 14011KT 28/11 A2994 RMK A01 T02770112  RH  036%=      5-min Rain = 0
KMC5 250016Z 13010KT 28/11 A2994 RMK A01 T02770114  RH  036%=      5-min Rain = 0
KMC5 250017Z 13010KT 28/12 A2994 RMK A01 T02760115  RH  037%=      5-min Rain = 0
KMC5 250018Z 13009KT 28/12 A2994 RMK A01 T02760116  RH  037%=      5-min Rain = 0
KMC5 250019Z 13009KT 28/12 A2994 RMK A01 T02750120  RH  038%=      5-min Rain = 0
KMC5 250020Z 13008KT 28/12 A2994 RMK A01 T02750120  RH  038%=      5-min Rain = 0
KMC5 250021Z 13008KT 28/12 A2994 RMK A01 T02750121  RH  038%=      5-min Rain = 0
KMC5 250022Z 13010KT 28/12 A2994 RMK A01 T02750117  RH  038%=      5-min Rain = 0
KMC5 250023Z 13009KT 28/11 A2994 RMK A01 T02750114  RH  037%=      5-min Rain = 0
KMC5 250024Z 13010KT 28/11 A2994 RMK A01 T02750114  RH  037%=      5-min Rain = 0
KMC5 250025Z 14008KT 27/12 A2994 RMK A01 T02740118  RH  038%=      5-min Rain = 0
KMC5 250026Z 15008KT 28/12 A2994 RMK A01 T02750122  RH  039%=      5-min Rain = 0
KMC5 250027Z 14008KT 27/12 A2994 RMK A01 T02740116  RH  037%=      5-min Rain = 0
KMC5 250028Z 13007KT 27/12 A2994 RMK A01 T02740116  RH  037%=      5-min Rain = 0
KMC5 250029Z 13008KT 27/12 A2994 RMK A01 T02740120  RH  038%=      5-min Rain = 0
KMC5 250030Z 14009KT 27/12 A2994 RMK A01 T02740117  RH  038%=      5-min Rain = 0
KMC5 250031Z 14009KT 27/12 A2994 RMK A01 T02740116  RH  037%=      5-min Rain = 0
KMC5 250032Z 14008KT 27/12 A2994 RMK A01 T02730119  RH  038%=      5-min Rain = 0
KMC5 250033Z 14008KT 27/12 A2994 RMK A01 T02730121  RH  039%=      5-min Rain = 0
KMC5 250034Z 14008KT 27/12 A2994 RMK A01 T02720117  RH  038%=      5-min Rain = 0
KMC5 250035Z 14008KT 27/12 A2994 RMK A01 T02720115  RH  038%=      5-min Rain = 0
KMC5 250036Z 14007KT 27/12 A2994 RMK A01 T02720121  RH  039%=      5-min Rain = 0
KMC5 250037Z 14007KT 27/13 A2994 RMK A01 T02720126  RH  040%=      5-min Rain = 0
KMC5 250038Z 15008KT 27/12 A2994 RMK A01 T02710124  RH  040%=      5-min Rain = 0
KMC5 250039Z 13007KT 27/13 A2994 RMK A01 T02710125  RH  040%=      5-min Rain = 0
KMC5 250040Z 14007KT 27/13 A2994 RMK A01 T02710125  RH  040%=      5-min Rain = 0
KMC5 250041Z 13010KT 27/12 A2994 RMK A01 T02710121  RH  039%=      5-min Rain = 0
KMC5 250042Z 15011KT 27/12 A2994 RMK A01 T02700116  RH  038%=      5-min Rain = 0
KMC5 250043Z 14012KT 27/12 A2994 RMK A01 T02710116  RH  038%=      5-min Rain = 0
KMC5 250044Z 14010KT 27/12 A2994 RMK A01 T02700119  RH  039%=      5-min Rain = 0
KMC5 250045Z 14010KT 27/12 A2994 RMK A01 T02690119  RH  039%=      5-min Rain = 0
KMC5 250046Z 14010KT 27/12 A2994 RMK A01 T02680121  RH  040%=      5-min Rain = 0
KMC5 250047Z 14011KT 27/12 A2994 RMK A01 T02680120  RH  040%=      5-min Rain = 0
KMC5 250048Z 14009KT 27/12 A2994 RMK A01 T02670118  RH  039%=      5-min Rain = 0
KMC5 250049Z 14010KT 27/12 A2994 RMK A01 T02670121  RH  040%=      5-min Rain = 0
KMC5 250050Z 14010KT 27/12 A2994 RMK A01 T02670119  RH  040%=      5-min Rain = 0
KMC5 250051Z 14010KT 27/12 A2994 RMK A01 T02660120  RH  040%=      5-min Rain = 0
KMC5 250052Z 14010KT 27/12 A2994 RMK A01 T02660121  RH  040%=      5-min Rain = 0
KMC5 250053Z 13010KT 27/12 A2994 RMK A01 T02650119  RH  040%=      5-min Rain = 0
KMC5 250054Z 13010KT 27/12 A2994 RMK A01 T02650120  RH  041%=      5-min Rain = 0
KMC5 250055Z 13009KT 26/12 A2994 RMK A01 T02640122  RH  041%=      5-min Rain = 0
KMC5 250056Z 14009KT 26/13 A2994 RMK A01 T02630125  RH  042%=      5-min Rain = 0
KMC5 250057Z 13010KT 26/12 A2994 RMK A01 T02620123  RH  042%=      5-min Rain = 0
KMC5 250058Z 13010KT 26/12 A2994 RMK A01 T02620121  RH  041%=      5-min Rain = 0
KMC5 250059Z 13010KT 26/12 A2994 RMK A01 T02620124  RH  042%=      5-min Rain = 0
KMC5 250100Z 12010KT 26/12 A2994 RMK A01 T02610123  RH  042%=      5-min Rain = 0
KMC5 250101Z 13010KT 26/12 A2994 RMK A01 T02610122  RH  042%=      5-min Rain = 0
KMC5 250102Z 12010KT 26/12 A2994 RMK A01 T02610122  RH  042%=      5-min Rain = 0
KMC5 250103Z 12010KT 26/12 A2994 RMK A01 T02610120  RH  042%=      5-min Rain = 0
KMC5 250104Z 13010KT 26/12 A2994 RMK A01 T02600121  RH  042%=      5-min Rain = 0
KMC5 250105Z 13010KT 26/12 A2994 RMK A01 T02590123  RH  043%=      5-min Rain = 0
KMC5 250106Z 13009KT 26/12 A2994 RMK A01 T02590123  RH  043%=      5-min Rain = 0
KMC5 250107Z 13012KT 26/12 A2994 RMK A01 T02580122  RH  043%=      5-min Rain = 0
KMC5 250108Z 12011KT 26/12 A2994 RMK A01 T02580121  RH  042%=      5-min Rain = 0
KMC5 250109Z 13011KT 26/12 A2994 RMK A01 T02580121  RH  042%=      5-min Rain = 0
KMC5 250110Z 13011KT 26/12 A2994 RMK A01 T02580120  RH  042%=      5-min Rain = 0
KMC5 250111Z 13011KT 26/12 A2994 RMK A01 T02580117  RH  041%=      5-min Rain = 0
KMC5 250112Z 13009KT 26/12 A2994 RMK A01 T02580122  RH  043%=      5-min Rain = 0
KMC5 250113Z 13009KT 26/12 A2994 RMK A01 T02570122  RH  043%=      5-min Rain = 0
KMC5 250114Z 13008KT 26/12 A2994 RMK A01 T02550124  RH  044%=      5-min Rain = 0
KMC5 250115Z 13010KT 25/12 A2994 RMK A01 T02540124  RH  044%=      5-min Rain = 0
KMC5 250116Z 13011KT 25/12 A2994 RMK A01 T02530120  RH  043%=      5-min Rain = 0
KMC5 250117Z 12010KT 25/12 A2994 RMK A01 T02540121  RH  044%=      5-min Rain = 0
KMC5 250118Z 13010KT 25/12 A2994 RMK A01 T02540121  RH  044%=      5-min Rain = 0
KMC5 250119Z 13009KT 25/12 A2995 RMK A01 T02530121  RH  044%=      5-min Rain = 0
KMC5 250120Z 13010KT 25/12 A2995 RMK A01 T02530120  RH  044%=      5-min Rain = 0
KMC5 250121Z 13010KT 25/12 A2995 RMK A01 T02530122  RH  044%=      5-min Rain = 0
KMC5 250122Z 12010KT 25/12 A2995 RMK A01 T02510123  RH  045%=      5-min Rain = 0
KMC5 250123Z 12010KT 25/12 A2995 RMK A01 T02500122  RH  045%=      5-min Rain = 0
KMC5 250124Z 12009KT 25/12 A2995 RMK A01 T02490123  RH  045%=      5-min Rain = 0
KMC5 250125Z 12009KT 25/12 A2995 RMK A01 T02480123  RH  046%=      5-min Rain = 0
KMC5 250126Z 12009KT 25/12 A2995 RMK A01 T02480124  RH  046%=      5-min Rain = 0
KMC5 250127Z 12010KT 25/12 A2995 RMK A01 T02480124  RH  046%=      5-min Rain = 0
KMC5 250128Z 12009KT 25/12 A2995 RMK A01 T02470123  RH  046%=      5-min Rain = 0
KMC5 250129Z 12009KT 25/12 A2995 RMK A01 T02470123  RH  046%=      5-min Rain = 0
KMC5 250130Z 13009KT 25/12 A2995 RMK A01 T02460124  RH  046%=      5-min Rain = 0
KMC5 250131Z 12009KT 25/12 A2995 RMK A01 T02460123  RH  046%=      5-min Rain = 0
KMC5 250132Z 13010KT 25/12 A2995 RMK A01 T02450123  RH  047%=      5-min Rain = 0
KMC5 250133Z 13010KT 25/12 A2995 RMK A01 T02450123  RH  047%=      5-min Rain = 0
KMC5 250134Z 13009KT 24/12 A2995 RMK A01 T02440123  RH  047%=      5-min Rain = 0
KMC5 250135Z 12010KT 24/12 A2995 RMK A01 T02440123  RH  047%=      5-min Rain = 0
KMC5 250136Z 13010KT 24/12 A2995 RMK A01 T02430122  RH  047%=      5-min Rain = 0
KMC5 250137Z 13010KT 24/12 A2995 RMK A01 T02430124  RH  047%=      5-min Rain = 0
KMC5 250138Z 13010KT 24/12 A2995 RMK A01 T02420124  RH  048%=      5-min Rain = 0
KMC5 250139Z 13009KT 24/12 A2995 RMK A01 T02410123  RH  048%=      5-min Rain = 0
KMC5 250140Z 13009KT 24/13 A2995 RMK A01 T02410125  RH  048%=      5-min Rain = 0
KMC5 250141Z 13009KT 24/13 A2995 RMK A01 T02400125  RH  049%=      5-min Rain = 0
KMC5 250142Z 12010KT 24/12 A2995 RMK A01 T02390124  RH  049%=      5-min Rain = 0
KMC5 250143Z 13009KT 24/12 A2995 RMK A01 T02380124  RH  049%=      5-min Rain = 0
KMC5 250144Z 13010KT 24/12 A2995 RMK A01 T02370124  RH  049%=      5-min Rain = 0
KMC5 250145Z 13010KT 24/12 A2995 RMK A01 T02370124  RH  049%=      5-min Rain = 0
KMC5 250146Z 13010KT 24/12 A2995 RMK A01 T02370122  RH  049%=      5-min Rain = 0
KMC5 250147Z 12010KT 24/12 A2995 RMK A01 T02370122  RH  048%=      5-min Rain = 0
KMC5 250148Z 13010KT 24/12 A2995 RMK A01 T02380123  RH  049%=      5-min Rain = 0
KMC5 250149Z 12010KT 24/12 A2995 RMK A01 T02370123  RH  049%=      5-min Rain = 0
KMC5 250150Z 13010KT 24/12 A2996 RMK A01 T02360122  RH  049%=      5-min Rain = 0
KMC5 250151Z 13009KT 24/12 A2996 RMK A01 T02360123  RH  049%=      5-min Rain = 0
KMC5 250152Z 13010KT 24/12 A2996 RMK A01 T02350123  RH  049%=      5-min Rain = 0
KMC5 250153Z 13011KT 23/12 A2996 RMK A01 T02340122  RH  049%=      5-min Rain = 0
KMC5 250154Z 13011KT 23/12 A2996 RMK A01 T02340120  RH  049%=      5-min Rain = 0
KMC5 250155Z 12011KT 24/12 A2996 RMK A01 T02350121  RH  049%=      5-min Rain = 0
KMC5 250156Z 13010KT 24/12 A2996 RMK A01 T02350122  RH  049%=      5-min Rain = 0
KMC5 250157Z 13010KT 23/12 A2996 RMK A01 T02340121  RH  049%=      5-min Rain = 0
KMC5 250158Z 13010KT 23/12 A2996 RMK A01 T02340121  RH  049%=      5-min Rain = 0
KMC5 250159Z 13011KT 23/12 A2996 RMK A01 T02340121  RH  049%=      5-min Rain = 0
KMC5 250200Z 13010KT 23/12 A2996 RMK A01 T02340119  RH  048%=      5-min Rain = 0
KMC5 250201Z 13011KT 23/12 A2996 RMK A01 T02340121  RH  049%=      5-min Rain = 0
KMC5 250202Z 13011KT 23/12 A2996 RMK A01 T02340120  RH  049%=      5-min Rain = 0
KMC5 250203Z 13010KT 23/12 A2996 RMK A01 T02340120  RH  049%=      5-min Rain = 0
KMC5 250204Z 13011KT 23/12 A2996 RMK A01 T02330121  RH  049%=      5-min Rain = 0
KMC5 250205Z 13010KT 23/12 A2996 RMK A01 T02330120  RH  049%=      5-min Rain = 0
KMC5 250206Z 13010KT 23/12 A2996 RMK A01 T02330121  RH  049%=      5-min Rain = 0
KMC5 250207Z 13010KT 23/12 A2996 RMK A01 T02320121  RH  050%=      5-min Rain = 0
KMC5 250208Z 13010KT 23/12 A2996 RMK A01 T02320120  RH  049%=      5-min Rain = 0
KMC5 250209Z 13010KT 23/12 A2996 RMK A01 T02320120  RH  049%=      5-min Rain = 0
KMC5 250210Z 13010KT 23/12 A2996 RMK A01 T02330121  RH  049%=      5-min Rain = 0
KMC5 250211Z 13010KT 23/12 A2996 RMK A01 T02320122  RH  050%=      5-min Rain = 0
KMC5 250212Z 13010KT 23/12 A2996 RMK A01 T02310122  RH  050%=      5-min Rain = 0
KMC5 250213Z 13010KT 23/12 A2996 RMK A01 T02310121  RH  050%=      5-min Rain = 0
KMC5 250214Z 13010KT 23/12 A2996 RMK A01 T02310121  RH  050%=      5-min Rain = 0
KMC5 250215Z 13010KT 23/12 A2996 RMK A01 T02310122  RH  050%=      5-min Rain = 0
KMC5 250216Z 13010KT 23/12 A2996 RMK A01 T02300123  RH  051%=      5-min Rain = 0
KMC5 250217Z 13010KT 23/12 A2996 RMK A01 T02300120  RH  050%=      5-min Rain = 0
KMC5 250218Z 13009KT 23/12 A2996 RMK A01 T02310123  RH  050%=      5-min Rain = 0
KMC5 250219Z 13011KT 23/12 A2996 RMK A01 T02310121  RH  050%=      5-min Rain = 0
KMC5 250220Z 13010KT 23/12 A2996 RMK A01 T02310122  RH  050%=      5-min Rain = 0
KMC5 250221Z 13011KT 23/12 A2996 RMK A01 T02310122  RH  050%=      5-min Rain = 0
KMC5 250222Z 13010KT 23/12 A2996 RMK A01 T02320120  RH  050%=      5-min Rain = 0
KMC5 250223Z 13011KT 23/12 A2996 RMK A01 T02320122  RH  050%=      5-min Rain = 0
KMC5 250224Z 13011KT 23/12 A2996 RMK A01 T02320121  RH  050%=      5-min Rain = 0
KMC5 250225Z 13010KT 23/12 A2996 RMK A01 T02320123  RH  050%=      5-min Rain = 0
KMC5 250226Z 13010KT 23/12 A2996 RMK A01 T02310122  RH  050%=      5-min Rain = 0
KMC5 250227Z 13011KT 23/12 A2996 RMK A01 T02300122  RH  051%=      5-min Rain = 0
KMC5 250228Z 13010KT 23/12 A2996 RMK A01 T02290123  RH  051%=      5-min Rain = 0
KMC5 250229Z 13010KT 23/12 A2996 RMK A01 T02280123  RH  051%=      5-min Rain = 0
KMC5 250230Z 13010KT 23/12 A2996 RMK A01 T02280122  RH  051%=      5-min Rain = 0
KMC5 250231Z 13011KT 23/12 A2996 RMK A01 T02280122  RH  051%=      5-min Rain = 0
KMC5 250232Z 13010KT 23/12 A2996 RMK A01 T02280121  RH  051%=      5-min Rain = 0
KMC5 250233Z 13010KT 23/12 A2996 RMK A01 T02290122  RH  051%=      5-min Rain = 0
KMC5 250234Z 13011KT 23/12 A2996 RMK A01 T02290122  RH  051%=      5-min Rain = 0
KMC5 250235Z 13010KT 23/12 A2996 RMK A01 T02290120  RH  050%=      5-min Rain = 0
KMC5 250236Z 13010KT 23/12 A2996 RMK A01 T02290122  RH  051%=      5-min Rain = 0
KMC5 250237Z 13010G16KT 23/12 A2996 RMK A01 T02280123  RH  051%=      5-min Rain = 0
KMC5 250238Z 13009KT 23/12 A2996 RMK A01 T02270122  RH  051%=      5-min Rain = 0
KMC5 250239Z 12010KT 23/12 A2996 RMK A01 T02270122  RH  052%=      5-min Rain = 0
KMC5 250240Z 13010KT 23/12 A2996 RMK A01 T02260122  RH  052%=      5-min Rain = 0
KMC5 250241Z 12010KT 23/12 A2996 RMK A01 T02260121  RH  051%=      5-min Rain = 0
KMC5 250242Z 12009KT 23/12 A2996 RMK A01 T02270122  RH  051%=      5-min Rain = 0
KMC5 250243Z 12009KT 23/12 A2996 RMK A01 T02270122  RH  052%=      5-min Rain = 0
KMC5 250244Z 12009KT 23/12 A2996 RMK A01 T02260123  RH  052%=      5-min Rain = 0
KMC5 250245Z 12009KT 22/12 A2996 RMK A01 T02240123  RH  053%=      5-min Rain = 0
KMC5 250246Z 12008KT 22/12 A2996 RMK A01 T02230123  RH  053%=      5-min Rain = 0
KMC5 250247Z 12009KT 22/12 A2996 RMK A01 T02220122  RH  053%=      5-min Rain = 0
KMC5 250248Z 12009KT 22/12 A2996 RMK A01 T02220122  RH  053%=      5-min Rain = 0
KMC5 250249Z 12008KT 22/12 A2996 RMK A01 T02220123  RH  053%=      5-min Rain = 0
KMC5 250250Z 12009KT 22/12 A2996 RMK A01 T02220122  RH  053%=      5-min Rain = 0
KMC5 250251Z 12009KT 22/12 A2996 RMK A01 T02220122  RH  053%=      5-min Rain = 0
KMC5 250252Z 12009KT 22/12 A2996 RMK A01 T02220122  RH  053%=      5-min Rain = 0
KMC5 250253Z 12008KT 22/12 A2996 RMK A01 T02220122  RH  053%=      5-min Rain = 0
KMC5 250254Z 12008KT 22/12 A2997 RMK A01 T02220123  RH  053%=      5-min Rain = 0
KMC5 250255Z 12008KT 22/12 A2997 RMK A01 T02210122  RH  053%=      5-min Rain = 0
KMC5 250256Z 12009KT 22/12 A2997 RMK A01 T02210121  RH  053%=      5-min Rain = 0
KMC5 250257Z 11008KT 22/12 A2997 RMK A01 T02210122  RH  054%=      5-min Rain = 0
KMC5 250258Z 12008KT 22/12 A2997 RMK A01 T02210123  RH  054%=      5-min Rain = 0
KMC5 250259Z 12008KT 22/12 A2997 RMK A01 T02200123  RH  054%=      5-min Rain = 0
KMC5 250300Z 12008KT 22/12 A2997 RMK A01 T02200123  RH  054%=      5-min Rain = 0
KMC5 250301Z 12009KT 22/12 A2997 RMK A01 T02190122  RH  054%=      5-min Rain = 0
KMC5 250302Z 12008KT 22/12 A2997 RMK A01 T02200121  RH  054%=      5-min Rain = 0
KMC5 250303Z 12008KT 22/12 A2997 RMK A01 T02190121  RH  054%=      5-min Rain = 0
KMC5 250304Z 12008KT 22/12 A2997 RMK A01 T02190122  RH  054%=      5-min Rain = 0
KMC5 250305Z 12008KT 22/12 A2997 RMK A01 T02190123  RH  055%=      5-min Rain = 0
KMC5 250306Z 12008KT 22/12 A2997 RMK A01 T02170122  RH  055%=      5-min Rain = 0
KMC5 250307Z 12009KT 22/12 A2997 RMK A01 T02170122  RH  055%=      5-min Rain = 0
KMC5 250308Z 12010KT 22/12 A2997 RMK A01 T02170121  RH  054%=      5-min Rain = 0
KMC5 250309Z 12009KT 22/12 A2997 RMK A01 T02180122  RH  054%=      5-min Rain = 0
KMC5 250310Z 12008KT 22/12 A2997 RMK A01 T02180122  RH  054%=      5-min Rain = 0
KMC5 250311Z 12009KT 22/12 A2997 RMK A01 T02180122  RH  055%=      5-min Rain = 0
KMC5 250312Z 12009KT 22/12 A2997 RMK A01 T02170122  RH  055%=      5-min Rain = 0
KMC5 250313Z 12009KT 22/12 A2997 RMK A01 T02170122  RH  055%=      5-min Rain = 0
KMC5 250314Z 12008KT 22/12 A2997 RMK A01 T02170122  RH  055%=      5-min Rain = 0
KMC5 250315Z 12009KT 22/12 A2997 RMK A01 T02160122  RH  055%=      5-min Rain = 0
KMC5 250316Z 13010KT 22/12 A2997 RMK A01 T02160122  RH  055%=      5-min Rain = 0
KMC5 250317Z 12011KT 22/12 A2997 RMK A01 T02160120  RH  054%=      5-min Rain = 0
KMC5 250318Z 13009KT 22/12 A2997 RMK A01 T02180121  RH  054%=      5-min Rain = 0
KMC5 250319Z 13009KT 22/12 A2997 RMK A01 T02180122  RH  054%=      5-min Rain = 0
KMC5 250320Z 13011KT 22/12 A2997 RMK A01 T02170120  RH  054%=      5-min Rain = 0
KMC5 250321Z 13010G15KT 22/12 A2997 RMK A01 T02180121  RH  054%=      5-min Rain = 0
KMC5 250322Z 13011KT 22/12 A2997 RMK A01 T02180120  RH  053%=      5-min Rain = 0
KMC5 250323Z 13010KT 22/12 A2997 RMK A01 T02190120  RH  053%=      5-min Rain = 0
KMC5 250324Z 13008KT 22/12 A2997 RMK A01 T02180122  RH  054%=      5-min Rain = 0
KMC5 250325Z 13009KT 22/12 A2997 RMK A01 T02170121  RH  054%=      5-min Rain = 0
KMC5 250326Z 13009KT 22/12 A2997 RMK A01 T02170121  RH  054%=      5-min Rain = 0
KMC5 250327Z 13009KT 22/12 A2997 RMK A01 T02170121  RH  054%=      5-min Rain = 0
KMC5 250328Z 12009KT 22/12 A2997 RMK A01 T02170121  RH  054%=      5-min Rain = 0
KMC5 250329Z 13010KT 22/12 A2997 RMK A01 T02170121  RH  054%=      5-min Rain = 0
KMC5 250330Z 13010KT 22/12 A2997 RMK A01 T02170120  RH  054%=      5-min Rain = 0
KMC5 250331Z 13009KT 22/12 A2997 RMK A01 T02180122  RH  054%=      5-min Rain = 0
KMC5 250332Z 13011KT 22/12 A2997 RMK A01 T02170121  RH  055%=      5-min Rain = 0
KMC5 250333Z 13009KT 22/12 A2997 RMK A01 T02170121  RH  054%=      5-min Rain = 0
KMC5 250334Z 12010KT 22/12 A2997 RMK A01 T02170121  RH  054%=      5-min Rain = 0
KMC5 250335Z 12009KT 22/12 A2997 RMK A01 T02160122  RH  055%=      5-min Rain = 0
KMC5 250336Z 12009KT 22/12 A2997 RMK A01 T02160122  RH  055%=      5-min Rain = 0
KMC5 250337Z 12009KT 22/12 A2997 RMK A01 T02160122  RH  055%=      5-min Rain = 0
KMC5 250338Z 13008KT 22/12 A2997 RMK A01 T02160122  RH  055%=      5-min Rain = 0
KMC5 250339Z 12008KT 22/12 A2997 RMK A01 T02150122  RH  055%=      5-min Rain = 0
KMC5 250340Z 12009KT 22/12 A2997 RMK A01 T02150122  RH  056%=      5-min Rain = 0
KMC5 250341Z 13009KT 21/12 A2998 RMK A01 T02140122  RH  056%=      5-min Rain = 0
KMC5 250342Z 13010KT 21/12 A2998 RMK A01 T02140123  RH  056%=      5-min Rain = 0
KMC5 250343Z 12008KT 21/12 A2998 RMK A01 T02140124  RH  056%=      5-min Rain = 0
KMC5 250344Z 12009KT 21/12 A2998 RMK A01 T02130122  RH  056%=      5-min Rain = 0
KMC5 250345Z 13009KT 21/12 A2998 RMK A01 T02130122  RH  056%=      5-min Rain = 0
KMC5 250346Z 12009KT 21/12 A2998 RMK A01 T02130122  RH  056%=      5-min Rain = 0
KMC5 250347Z 13009KT 21/12 A2998 RMK A01 T02130123  RH  056%=      5-min Rain = 0
KMC5 250348Z 12009KT 21/12 A2998 RMK A01 T02130123  RH  057%=      5-min Rain = 0
KMC5 250349Z 13009KT 21/12 A2998 RMK A01 T02120122  RH  056%=      5-min Rain = 0
KMC5 250350Z 13010KT 21/12 A2998 RMK A01 T02120123  RH  056%=      5-min Rain = 0
KMC5 250351Z 13010KT 21/12 A2998 RMK A01 T02120122  RH  056%=      5-min Rain = 0
KMC5 250352Z 13009KT 21/12 A2998 RMK A01 T02120123  RH  057%=      5-min Rain = 0
KMC5 250353Z 12010KT 21/12 A2998 RMK A01 T02120123  RH  057%=      5-min Rain = 0
KMC5 250354Z 13010KT 21/12 A2998 RMK A01 T02110123  RH  057%=      5-min Rain = 0
KMC5 250355Z 13010KT 21/12 A2998 RMK A01 T02110123  RH  057%=      5-min Rain = 0
KMC5 250356Z 13010KT 21/12 A2998 RMK A01 T02110123  RH  057%=      5-min Rain = 0
KMC5 250357Z 13011KT 21/12 A2999 RMK A01 T02110123  RH  057%=      5-min Rain = 0
KMC5 250358Z 13011KT 21/12 A2998 RMK A01 T02110122  RH  057%=      5-min Rain = 0
KMC5 250359Z 13010KT 21/12 A2998 RMK A01 T02120123  RH  057%=      5-min Rain = 0
KMC5 250400Z 13010KT 21/12 A2998 RMK A01 T02120124  RH  057%=      5-min Rain = 0
KMC5 250401Z 12009KT 21/12 A2998 RMK A01 T02120124  RH  057%=      5-min Rain = 0
KMC5 250402Z 12009KT 21/12 A2998 RMK A01 T02110124  RH  057%=      5-min Rain = 0
KMC5 250403Z 12010KT 21/12 A2998 RMK A01 T02100124  RH  058%=      5-min Rain = 0
KMC5 250404Z 12009KT 21/12 A2999 RMK A01 T02100123  RH  058%=      5-min Rain = 0
KMC5 250405Z 12010KT 21/12 A2999 RMK A01 T02100124  RH  058%=      5-min Rain = 0
KMC5 250406Z 12010KT 21/12 A2999 RMK A01 T02100124  RH  058%=      5-min Rain = 0
KMC5 250407Z 12008KT 21/13 A2999 RMK A01 T02110125  RH  058%=      5-min Rain = 0
KMC5 250408Z 12008KT 21/13 A2999 RMK A01 T02090125  RH  059%=      5-min Rain = 0
KMC5 250409Z 13008KT 21/13 A2998 RMK A01 T02080125  RH  059%=      5-min Rain = 0
KMC5 250410Z 12009KT 21/13 A2998 RMK A01 T02070125  RH  059%=      5-min Rain = 0
KMC5 250411Z 12009KT 21/12 A2998 RMK A01 T02080124  RH  059%=      5-min Rain = 0
KMC5 250412Z 13010KT 21/12 A2998 RMK A01 T02080124  RH  059%=      5-min Rain = 0
KMC5 250413Z 12009KT 21/13 A2999 RMK A01 T02090126  RH  059%=      5-min Rain = 0
KMC5 250414Z 12009KT 21/13 A2999 RMK A01 T02080126  RH  059%=      5-min Rain = 0
KMC5 250415Z 12008KT 21/13 A2999 RMK A01 T02070126  RH  060%=      5-min Rain = 0
KMC5 250416Z 12009KT 21/13 A2999 RMK A01 T02060126  RH  060%=      5-min Rain = 0
KMC5 250417Z 12009KT 21/13 A2999 RMK A01 T02050126  RH  060%=      5-min Rain = 0
KMC5 250418Z 12009KT 21/13 A2999 RMK A01 T02050126  RH  060%=      5-min Rain = 0
KMC5 250419Z 13009KT 21/13 A2999 RMK A01 T02060125  RH  060%=      5-min Rain = 0
KMC5 250420Z 12009KT 21/13 A2999 RMK A01 T02060126  RH  060%=      5-min Rain = 0
KMC5 250421Z 13010KT 21/13 A2999 RMK A01 T02060127  RH  060%=      5-min Rain = 0
KMC5 250422Z 13011KT 21/13 A2999 RMK A01 T02060126  RH  060%=      5-min Rain = 0
KMC5 250423Z 12010KT 21/13 A2999 RMK A01 T02060126  RH  060%=      5-min Rain = 0
KMC5 250424Z 13011KT 21/13 A2999 RMK A01 T02070127  RH  060%=      5-min Rain = 0
KMC5 250425Z 13011KT 21/13 A2999 RMK A01 T02070127  RH  060%=      5-min Rain = 0
KMC5 250426Z 13010KT 21/13 A2999 RMK A01 T02070127  RH  060%=      5-min Rain = 0
KMC5 250427Z 13011KT 21/13 A2999 RMK A01 T02070128  RH  060%=      5-min Rain = 0
KMC5 250428Z 13011KT 21/13 A2999 RMK A01 T02070128  RH  060%=      5-min Rain = 0
KMC5 250429Z 13012KT 21/13 A2999 RMK A01 T02080128  RH  060%=      5-min Rain = 0
KMC5 250430Z 13012KT 21/13 A2999 RMK A01 T02090128  RH  060%=      5-min Rain = 0
KMC5 250431Z 13010KT 21/13 A2999 RMK A01 T02100129  RH  060%=      5-min Rain = 0
KMC5 250432Z 13012KT 21/13 A2999 RMK A01 T02100130  RH  060%=      5-min Rain = 0
KMC5 250433Z 13011KT 21/13 A2999 RMK A01 T02100131  RH  061%=      5-min Rain = 0
KMC5 250434Z 13012KT 21/13 A2999 RMK A01 T02090131  RH  061%=      5-min Rain = 0
KMC5 250435Z 13011KT 21/13 A2999 RMK A01 T02090130  RH  061%=      5-min Rain = 0
KMC5 250436Z 13013KT 21/13 A2999 RMK A01 T02090131  RH  061%=      5-min Rain = 0
KMC5 250437Z 14011G16KT 21/13 A2999 RMK A01 T02090132  RH  061%=      5-min Rain = 0
KMC5 250438Z 13013KT 21/13 A2999 RMK A01 T02090132  RH  061%=      5-min Rain = 0
KMC5 250439Z 13012KT 21/13 A2999 RMK A01 T02090132  RH  061%=      5-min Rain = 0
KMC5 250440Z 13010KT 21/13 A2999 RMK A01 T02100133  RH  061%=      5-min Rain = 0
KMC5 250441Z 13010KT 21/13 A2999 RMK A01 T02090133  RH  062%=      5-min Rain = 0
KMC5 250442Z 13012KT 21/13 A2999 RMK A01 T02090134  RH  062%=      5-min Rain = 0
KMC5 250443Z 13010KT 21/13 A2999 RMK A01 T02080134  RH  063%=      5-min Rain = 0
KMC5 250444Z 13011KT 21/13 A2999 RMK A01 T02080134  RH  063%=      5-min Rain = 0
KMC5 250445Z 13010KT 21/14 A2999 RMK A01 T02080135  RH  063%=      5-min Rain = 0
KMC5 250446Z 13011KT 21/14 A2999 RMK A01 T02070136  RH  064%=      5-min Rain = 0
KMC5 250447Z 13011KT 21/14 A2999 RMK A01 T02070136  RH  064%=      5-min Rain = 0
KMC5 250448Z 12009KT 21/14 A2999 RMK A01 T02080136  RH  064%=      5-min Rain = 0
KMC5 250449Z 13009KT 21/14 A2999 RMK A01 T02080137  RH  064%=      5-min Rain = 0
KMC5 250450Z 12009KT 21/14 A2999 RMK A01 T02070137  RH  064%=      5-min Rain = 0
KMC5 250451Z 13010KT 21/14 A2999 RMK A01 T02060138  RH  065%=      5-min Rain = 0
KMC5 250452Z 13009KT 21/14 A2999 RMK A01 T02050138  RH  065%=      5-min Rain = 0
KMC5 250453Z 13010KT 21/14 A2999 RMK A01 T02050139  RH  066%=      5-min Rain = 0
KMC5 250454Z 13010KT 21/14 A2999 RMK A01 T02050139  RH  066%=      5-min Rain = 0
KMC5 250455Z 13009KT 21/14 A2999 RMK A01 T02050140  RH  066%=      5-min Rain = 0
KMC5 250456Z 13010KT 21/14 A2999 RMK A01 T02050140  RH  066%=      5-min Rain = 0
KMC5 250457Z 13009KT 21/14 A2999 RMK A01 T02050140  RH  066%=      5-min Rain = 0
KMC5 250458Z 13008KT 21/14 A2999 RMK A01 T02050140  RH  067%=      5-min Rain = 0
KMC5 250459Z 13010KT 20/14 A2999 RMK A01 T02040141  RH  067%=      5-min Rain = 0

Page generated in 0.1195 seconds.